<?xml version="1.0" encoding="UTF-8" standalone="no" ?>
<gpx xmlns="http://www.topografix.com/GPX/1/1" xmlns:xsi="http://www.w3.org/2001/XMLSchema-instance" xsi:schemaLocation="http://www.topografix.com/GPX/1/1 http://www.topografix.com/GPX/1/1/gpx.xsd" version="1.1" creator="VisuGPX - https://www.visugpx.com">
  <metadata>
    <name>vtt sortie club gr 3</name>
    <desc><![CDATA[circuit n° 13 liré bouzillé le marillais pour le groupe 3 (le plus court)]]></desc>
  </metadata>
  <trk>
    <name><![CDATA[2017-12-02-15-02-54 on GPSies.com]]></name>
    <trkseg>
      <trkpt lat="47.34437" lon="-1.16097">
        <ele>8</ele>
        <time>2017-12-02T15:02:54Z</time>
      </trkpt>
      <trkpt lat="47.34435" lon="-1.16111">
        <ele>8</ele>
        <time>2017-12-02T15:03:44Z</time>
      </trkpt>
      <trkpt lat="47.34434" lon="-1.1612">
        <ele>8</ele>
        <time>2017-12-02T15:03:47Z</time>
      </trkpt>
      <trkpt lat="47.34436" lon="-1.16136">
        <ele>8</ele>
        <time>2017-12-02T15:03:53Z</time>
      </trkpt>
      <trkpt lat="47.3444" lon="-1.16141">
        <ele>8</ele>
        <time>2017-12-02T15:03:56Z</time>
      </trkpt>
      <trkpt lat="47.34443" lon="-1.16145">
        <ele>8</ele>
        <time>2017-12-02T15:13:20Z</time>
      </trkpt>
      <trkpt lat="47.34446" lon="-1.16151">
        <ele>8</ele>
        <time>2017-12-02T15:13:22Z</time>
      </trkpt>
      <trkpt lat="47.34455" lon="-1.16171">
        <ele>9</ele>
        <time>2017-12-02T15:13:29Z</time>
      </trkpt>
      <trkpt lat="47.34461" lon="-1.16188">
        <ele>9</ele>
        <time>2017-12-02T15:13:35Z</time>
      </trkpt>
      <trkpt lat="47.34464" lon="-1.16197">
        <ele>10</ele>
        <time>2017-12-02T15:13:39Z</time>
      </trkpt>
      <trkpt lat="47.34466" lon="-1.16196">
        <ele>10</ele>
        <time>2017-12-02T15:13:40Z</time>
      </trkpt>
      <trkpt lat="47.34471" lon="-1.16186">
        <ele>10</ele>
        <time>2017-12-02T15:13:44Z</time>
      </trkpt>
      <trkpt lat="47.34473" lon="-1.16183">
        <ele>11</ele>
        <time>2017-12-02T15:13:45Z</time>
      </trkpt>
      <trkpt lat="47.34483" lon="-1.16156">
        <ele>11</ele>
        <time>2017-12-02T15:13:51Z</time>
      </trkpt>
      <trkpt lat="47.34487" lon="-1.16149">
        <ele>12</ele>
        <time>2017-12-02T15:13:53Z</time>
      </trkpt>
      <trkpt lat="47.34497" lon="-1.16134">
        <ele>12</ele>
        <time>2017-12-02T15:13:57Z</time>
      </trkpt>
      <trkpt lat="47.34502" lon="-1.16121">
        <ele>13</ele>
        <time>2017-12-02T15:14:00Z</time>
      </trkpt>
      <trkpt lat="47.34511" lon="-1.16093">
        <ele>14</ele>
        <time>2017-12-02T15:14:06Z</time>
      </trkpt>
      <trkpt lat="47.34513" lon="-1.16089">
        <ele>14</ele>
        <time>2017-12-02T15:14:07Z</time>
      </trkpt>
      <trkpt lat="47.34518" lon="-1.16063">
        <ele>15</ele>
        <time>2017-12-02T15:14:12Z</time>
      </trkpt>
      <trkpt lat="47.34519" lon="-1.16058">
        <ele>15</ele>
        <time>2017-12-02T15:14:13Z</time>
      </trkpt>
      <trkpt lat="47.34528" lon="-1.1601">
        <ele>16</ele>
        <time>2017-12-02T15:14:22Z</time>
      </trkpt>
      <trkpt lat="47.3453" lon="-1.15999">
        <ele>16</ele>
        <time>2017-12-02T15:14:24Z</time>
      </trkpt>
      <trkpt lat="47.34533" lon="-1.15959">
        <ele>16</ele>
        <time>2017-12-02T15:14:31Z</time>
      </trkpt>
      <trkpt lat="47.34531" lon="-1.15901">
        <ele>16</ele>
        <time>2017-12-02T15:14:40Z</time>
      </trkpt>
      <trkpt lat="47.34523" lon="-1.15851">
        <ele>16</ele>
        <time>2017-12-02T15:14:48Z</time>
      </trkpt>
      <trkpt lat="47.34506" lon="-1.15798">
        <ele>15</ele>
        <time>2017-12-02T15:14:58Z</time>
      </trkpt>
      <trkpt lat="47.34497" lon="-1.15775">
        <ele>16</ele>
        <time>2017-12-02T15:15:04Z</time>
      </trkpt>
      <trkpt lat="47.34494" lon="-1.15767">
        <ele>16</ele>
        <time>2017-12-02T15:15:08Z</time>
      </trkpt>
      <trkpt lat="47.34498" lon="-1.15764">
        <ele>16</ele>
        <time>2017-12-02T15:15:20Z</time>
      </trkpt>
      <trkpt lat="47.34512" lon="-1.15757">
        <ele>16</ele>
        <time>2017-12-02T15:15:24Z</time>
      </trkpt>
      <trkpt lat="47.34519" lon="-1.15749">
        <ele>16</ele>
        <time>2017-12-02T15:15:26Z</time>
      </trkpt>
      <trkpt lat="47.34526" lon="-1.15741">
        <ele>16</ele>
        <time>2017-12-02T15:15:28Z</time>
      </trkpt>
      <trkpt lat="47.3453" lon="-1.1573">
        <ele>16</ele>
        <time>2017-12-02T15:15:30Z</time>
      </trkpt>
      <trkpt lat="47.34533" lon="-1.15712">
        <ele>16</ele>
        <time>2017-12-02T15:15:33Z</time>
      </trkpt>
      <trkpt lat="47.34533" lon="-1.15706">
        <ele>16</ele>
        <time>2017-12-02T15:15:34Z</time>
      </trkpt>
      <trkpt lat="47.34531" lon="-1.15682">
        <ele>17</ele>
        <time>2017-12-02T15:15:38Z</time>
      </trkpt>
      <trkpt lat="47.34528" lon="-1.15664">
        <ele>17</ele>
        <time>2017-12-02T15:15:41Z</time>
      </trkpt>
      <trkpt lat="47.34528" lon="-1.15621">
        <ele>18</ele>
        <time>2017-12-02T15:15:48Z</time>
      </trkpt>
      <trkpt lat="47.34529" lon="-1.15615">
        <ele>18</ele>
        <time>2017-12-02T15:15:49Z</time>
      </trkpt>
      <trkpt lat="47.34531" lon="-1.15603">
        <ele>18</ele>
        <time>2017-12-02T15:15:51Z</time>
      </trkpt>
      <trkpt lat="47.34532" lon="-1.15567">
        <ele>18</ele>
        <time>2017-12-02T15:15:57Z</time>
      </trkpt>
      <trkpt lat="47.34531" lon="-1.1555">
        <ele>18</ele>
        <time>2017-12-02T15:16:00Z</time>
      </trkpt>
      <trkpt lat="47.34525" lon="-1.15533">
        <ele>18</ele>
        <time>2017-12-02T15:16:03Z</time>
      </trkpt>
      <trkpt lat="47.34505" lon="-1.15472">
        <ele>19</ele>
        <time>2017-12-02T15:16:14Z</time>
      </trkpt>
      <trkpt lat="47.34502" lon="-1.15461">
        <ele>19</ele>
        <time>2017-12-02T15:16:16Z</time>
      </trkpt>
      <trkpt lat="47.34486" lon="-1.15413">
        <ele>19</ele>
        <time>2017-12-02T15:16:25Z</time>
      </trkpt>
      <trkpt lat="47.34476" lon="-1.15367">
        <ele>20</ele>
        <time>2017-12-02T15:16:33Z</time>
      </trkpt>
      <trkpt lat="47.34475" lon="-1.15355">
        <ele>20</ele>
        <time>2017-12-02T15:16:35Z</time>
      </trkpt>
      <trkpt lat="47.34479" lon="-1.15337">
        <ele>20</ele>
        <time>2017-12-02T15:16:38Z</time>
      </trkpt>
      <trkpt lat="47.3448" lon="-1.15331">
        <ele>20</ele>
        <time>2017-12-02T15:16:39Z</time>
      </trkpt>
      <trkpt lat="47.34482" lon="-1.15326">
        <ele>20</ele>
        <time>2017-12-02T15:16:40Z</time>
      </trkpt>
      <trkpt lat="47.34484" lon="-1.1532">
        <ele>20</ele>
        <time>2017-12-02T15:16:41Z</time>
      </trkpt>
      <trkpt lat="47.34494" lon="-1.15293">
        <ele>21</ele>
        <time>2017-12-02T15:16:46Z</time>
      </trkpt>
      <trkpt lat="47.3451" lon="-1.15248">
        <ele>21</ele>
        <time>2017-12-02T15:16:54Z</time>
      </trkpt>
      <trkpt lat="47.34531" lon="-1.15196">
        <ele>21</ele>
        <time>2017-12-02T15:17:03Z</time>
      </trkpt>
      <trkpt lat="47.34543" lon="-1.15153">
        <ele>21</ele>
        <time>2017-12-02T15:17:10Z</time>
      </trkpt>
      <trkpt lat="47.34555" lon="-1.15084">
        <ele>21</ele>
        <time>2017-12-02T15:17:21Z</time>
      </trkpt>
      <trkpt lat="47.34559" lon="-1.15025">
        <ele>21</ele>
        <time>2017-12-02T15:17:30Z</time>
      </trkpt>
      <trkpt lat="47.34562" lon="-1.1495">
        <ele>21</ele>
        <time>2017-12-02T15:17:42Z</time>
      </trkpt>
      <trkpt lat="47.34566" lon="-1.14925">
        <ele>20</ele>
        <time>2017-12-02T15:17:48Z</time>
      </trkpt>
      <trkpt lat="47.34577" lon="-1.14921">
        <ele>19</ele>
        <time>2017-12-02T15:17:51Z</time>
      </trkpt>
      <trkpt lat="47.34581" lon="-1.14921">
        <ele>19</ele>
        <time>2017-12-02T15:17:52Z</time>
      </trkpt>
      <trkpt lat="47.34601" lon="-1.14921">
        <ele>19</ele>
        <time>2017-12-02T15:17:56Z</time>
      </trkpt>
      <trkpt lat="47.34611" lon="-1.14921">
        <ele>19</ele>
        <time>2017-12-02T15:17:58Z</time>
      </trkpt>
      <trkpt lat="47.3465" lon="-1.14911">
        <ele>19</ele>
        <time>2017-12-02T15:18:06Z</time>
      </trkpt>
      <trkpt lat="47.34688" lon="-1.14894">
        <ele>18</ele>
        <time>2017-12-02T15:18:14Z</time>
      </trkpt>
      <trkpt lat="47.34693" lon="-1.14892">
        <ele>18</ele>
        <time>2017-12-02T15:18:15Z</time>
      </trkpt>
      <trkpt lat="47.34718" lon="-1.14884">
        <ele>17</ele>
        <time>2017-12-02T15:18:20Z</time>
      </trkpt>
      <trkpt lat="47.34728" lon="-1.14883">
        <ele>17</ele>
        <time>2017-12-02T15:18:22Z</time>
      </trkpt>
      <trkpt lat="47.3475" lon="-1.14886">
        <ele>17</ele>
        <time>2017-12-02T15:18:26Z</time>
      </trkpt>
      <trkpt lat="47.34761" lon="-1.14888">
        <ele>17</ele>
        <time>2017-12-02T15:18:28Z</time>
      </trkpt>
      <trkpt lat="47.34781" lon="-1.14892">
        <ele>16</ele>
        <time>2017-12-02T15:18:32Z</time>
      </trkpt>
      <trkpt lat="47.34812" lon="-1.14899">
        <ele>15</ele>
        <time>2017-12-02T15:18:38Z</time>
      </trkpt>
      <trkpt lat="47.34837" lon="-1.14903">
        <ele>15</ele>
        <time>2017-12-02T15:18:43Z</time>
      </trkpt>
      <trkpt lat="47.34862" lon="-1.14906">
        <ele>14</ele>
        <time>2017-12-02T15:18:48Z</time>
      </trkpt>
      <trkpt lat="47.34899" lon="-1.14905">
        <ele>14</ele>
        <time>2017-12-02T15:18:55Z</time>
      </trkpt>
      <trkpt lat="47.34905" lon="-1.14905">
        <ele>14</ele>
        <time>2017-12-02T15:18:56Z</time>
      </trkpt>
      <trkpt lat="47.34927" lon="-1.14901">
        <ele>13</ele>
        <time>2017-12-02T15:19:01Z</time>
      </trkpt>
      <trkpt lat="47.34939" lon="-1.14898">
        <ele>12</ele>
        <time>2017-12-02T15:19:06Z</time>
      </trkpt>
      <trkpt lat="47.34943" lon="-1.149">
        <ele>10</ele>
        <time>2017-12-02T15:19:29Z</time>
      </trkpt>
      <trkpt lat="47.34943" lon="-1.14899">
        <ele>9</ele>
        <time>2017-12-02T15:21:10Z</time>
      </trkpt>
      <trkpt lat="47.34944" lon="-1.14898">
        <ele>10</ele>
        <time>2017-12-02T15:21:14Z</time>
      </trkpt>
      <trkpt lat="47.34956" lon="-1.1489">
        <ele>10</ele>
        <time>2017-12-02T15:21:18Z</time>
      </trkpt>
      <trkpt lat="47.34978" lon="-1.14881">
        <ele>10</ele>
        <time>2017-12-02T15:21:22Z</time>
      </trkpt>
      <trkpt lat="47.35008" lon="-1.1487">
        <ele>9</ele>
        <time>2017-12-02T15:21:27Z</time>
      </trkpt>
      <trkpt lat="47.35027" lon="-1.14862">
        <ele>9</ele>
        <time>2017-12-02T15:21:30Z</time>
      </trkpt>
      <trkpt lat="47.35032" lon="-1.14857">
        <ele>8</ele>
        <time>2017-12-02T15:21:31Z</time>
      </trkpt>
      <trkpt lat="47.35041" lon="-1.14843">
        <ele>8</ele>
        <time>2017-12-02T15:21:33Z</time>
      </trkpt>
      <trkpt lat="47.35045" lon="-1.14818">
        <ele>7</ele>
        <time>2017-12-02T15:21:36Z</time>
      </trkpt>
      <trkpt lat="47.35049" lon="-1.14786">
        <ele>7</ele>
        <time>2017-12-02T15:21:40Z</time>
      </trkpt>
      <trkpt lat="47.35053" lon="-1.14749">
        <ele>6</ele>
        <time>2017-12-02T15:21:45Z</time>
      </trkpt>
      <trkpt lat="47.35061" lon="-1.14692">
        <ele>6</ele>
        <time>2017-12-02T15:21:53Z</time>
      </trkpt>
      <trkpt lat="47.35074" lon="-1.14688">
        <ele>6</ele>
        <time>2017-12-02T15:21:56Z</time>
      </trkpt>
      <trkpt lat="47.35078" lon="-1.14692">
        <ele>6</ele>
        <time>2017-12-02T15:21:57Z</time>
      </trkpt>
      <trkpt lat="47.35083" lon="-1.14695">
        <ele>6</ele>
        <time>2017-12-02T15:21:58Z</time>
      </trkpt>
      <trkpt lat="47.35092" lon="-1.147">
        <ele>5</ele>
        <time>2017-12-02T15:22:00Z</time>
      </trkpt>
      <trkpt lat="47.35128" lon="-1.1471">
        <ele>6</ele>
        <time>2017-12-02T15:22:07Z</time>
      </trkpt>
      <trkpt lat="47.35161" lon="-1.14726">
        <ele>5</ele>
        <time>2017-12-02T15:22:14Z</time>
      </trkpt>
      <trkpt lat="47.35179" lon="-1.14732">
        <ele>5</ele>
        <time>2017-12-02T15:22:18Z</time>
      </trkpt>
      <trkpt lat="47.35187" lon="-1.14736">
        <ele>5</ele>
        <time>2017-12-02T15:22:20Z</time>
      </trkpt>
      <trkpt lat="47.35196" lon="-1.14738">
        <ele>5</ele>
        <time>2017-12-02T15:22:23Z</time>
      </trkpt>
      <trkpt lat="47.35199" lon="-1.14734">
        <ele>4</ele>
        <time>2017-12-02T15:22:24Z</time>
      </trkpt>
      <trkpt lat="47.35201" lon="-1.14718">
        <ele>4</ele>
        <time>2017-12-02T15:22:27Z</time>
      </trkpt>
      <trkpt lat="47.35202" lon="-1.14711">
        <ele>4</ele>
        <time>2017-12-02T15:22:28Z</time>
      </trkpt>
      <trkpt lat="47.35209" lon="-1.14675">
        <ele>5</ele>
        <time>2017-12-02T15:22:33Z</time>
      </trkpt>
      <trkpt lat="47.35219" lon="-1.14635">
        <ele>5</ele>
        <time>2017-12-02T15:22:39Z</time>
      </trkpt>
      <trkpt lat="47.35222" lon="-1.1463">
        <ele>5</ele>
        <time>2017-12-02T15:22:40Z</time>
      </trkpt>
      <trkpt lat="47.35244" lon="-1.14593">
        <ele>4</ele>
        <time>2017-12-02T15:22:47Z</time>
      </trkpt>
      <trkpt lat="47.35252" lon="-1.14576">
        <ele>4</ele>
        <time>2017-12-02T15:22:50Z</time>
      </trkpt>
      <trkpt lat="47.35258" lon="-1.14556">
        <ele>4</ele>
        <time>2017-12-02T15:22:53Z</time>
      </trkpt>
      <trkpt lat="47.3526" lon="-1.14543">
        <ele>5</ele>
        <time>2017-12-02T15:22:55Z</time>
      </trkpt>
      <trkpt lat="47.35264" lon="-1.1451">
        <ele>5</ele>
        <time>2017-12-02T15:23:00Z</time>
      </trkpt>
      <trkpt lat="47.35269" lon="-1.14447">
        <ele>5</ele>
        <time>2017-12-02T15:23:09Z</time>
      </trkpt>
      <trkpt lat="47.35265" lon="-1.14422">
        <ele>5</ele>
        <time>2017-12-02T15:23:13Z</time>
      </trkpt>
      <trkpt lat="47.35262" lon="-1.14409">
        <ele>5</ele>
        <time>2017-12-02T15:23:15Z</time>
      </trkpt>
      <trkpt lat="47.35255" lon="-1.14385">
        <ele>5</ele>
        <time>2017-12-02T15:23:19Z</time>
      </trkpt>
      <trkpt lat="47.35248" lon="-1.14369">
        <ele>5</ele>
        <time>2017-12-02T15:23:22Z</time>
      </trkpt>
      <trkpt lat="47.35246" lon="-1.14364">
        <ele>5</ele>
        <time>2017-12-02T15:23:23Z</time>
      </trkpt>
      <trkpt lat="47.35244" lon="-1.14347">
        <ele>5</ele>
        <time>2017-12-02T15:23:26Z</time>
      </trkpt>
      <trkpt lat="47.35244" lon="-1.1434">
        <ele>5</ele>
        <time>2017-12-02T15:23:27Z</time>
      </trkpt>
      <trkpt lat="47.35248" lon="-1.14309">
        <ele>4</ele>
        <time>2017-12-02T15:23:32Z</time>
      </trkpt>
      <trkpt lat="47.35252" lon="-1.14259">
        <ele>4</ele>
        <time>2017-12-02T15:23:39Z</time>
      </trkpt>
      <trkpt lat="47.35253" lon="-1.14252">
        <ele>4</ele>
        <time>2017-12-02T15:23:40Z</time>
      </trkpt>
      <trkpt lat="47.35255" lon="-1.14204">
        <ele>4</ele>
        <time>2017-12-02T15:23:47Z</time>
      </trkpt>
      <trkpt lat="47.35262" lon="-1.14149">
        <ele>4</ele>
        <time>2017-12-02T15:23:55Z</time>
      </trkpt>
      <trkpt lat="47.35264" lon="-1.14143">
        <ele>4</ele>
        <time>2017-12-02T15:23:56Z</time>
      </trkpt>
      <trkpt lat="47.35273" lon="-1.141">
        <ele>5</ele>
        <time>2017-12-02T15:24:02Z</time>
      </trkpt>
      <trkpt lat="47.35287" lon="-1.14045">
        <ele>5</ele>
        <time>2017-12-02T15:24:09Z</time>
      </trkpt>
      <trkpt lat="47.35303" lon="-1.13996">
        <ele>5</ele>
        <time>2017-12-02T15:24:16Z</time>
      </trkpt>
      <trkpt lat="47.35316" lon="-1.13949">
        <ele>4</ele>
        <time>2017-12-02T15:24:23Z</time>
      </trkpt>
      <trkpt lat="47.35322" lon="-1.13918">
        <ele>4</ele>
        <time>2017-12-02T15:24:27Z</time>
      </trkpt>
      <trkpt lat="47.35324" lon="-1.13911">
        <ele>4</ele>
        <time>2017-12-02T15:24:28Z</time>
      </trkpt>
      <trkpt lat="47.35335" lon="-1.1386">
        <ele>5</ele>
        <time>2017-12-02T15:24:35Z</time>
      </trkpt>
      <trkpt lat="47.35339" lon="-1.1382">
        <ele>4</ele>
        <time>2017-12-02T15:24:41Z</time>
      </trkpt>
      <trkpt lat="47.35342" lon="-1.1378">
        <ele>4</ele>
        <time>2017-12-02T15:24:48Z</time>
      </trkpt>
      <trkpt lat="47.35345" lon="-1.13743">
        <ele>4</ele>
        <time>2017-12-02T15:24:55Z</time>
      </trkpt>
      <trkpt lat="47.35348" lon="-1.13722">
        <ele>4</ele>
        <time>2017-12-02T15:25:01Z</time>
      </trkpt>
      <trkpt lat="47.35347" lon="-1.13718">
        <ele>4</ele>
        <time>2017-12-02T15:25:40Z</time>
      </trkpt>
      <trkpt lat="47.35342" lon="-1.13713">
        <ele>4</ele>
        <time>2017-12-02T15:25:42Z</time>
      </trkpt>
      <trkpt lat="47.3533" lon="-1.13711">
        <ele>4</ele>
        <time>2017-12-02T15:25:45Z</time>
      </trkpt>
      <trkpt lat="47.3532" lon="-1.1371">
        <ele>4</ele>
        <time>2017-12-02T15:25:47Z</time>
      </trkpt>
      <trkpt lat="47.35273" lon="-1.13708">
        <ele>5</ele>
        <time>2017-12-02T15:25:56Z</time>
      </trkpt>
      <trkpt lat="47.35261" lon="-1.13707">
        <ele>5</ele>
        <time>2017-12-02T15:25:58Z</time>
      </trkpt>
      <trkpt lat="47.35216" lon="-1.13705">
        <ele>5</ele>
        <time>2017-12-02T15:26:06Z</time>
      </trkpt>
      <trkpt lat="47.35172" lon="-1.13711">
        <ele>6</ele>
        <time>2017-12-02T15:26:15Z</time>
      </trkpt>
      <trkpt lat="47.35165" lon="-1.13711">
        <ele>6</ele>
        <time>2017-12-02T15:26:17Z</time>
      </trkpt>
      <trkpt lat="47.35155" lon="-1.1371">
        <ele>6</ele>
        <time>2017-12-02T15:26:20Z</time>
      </trkpt>
      <trkpt lat="47.3513" lon="-1.137">
        <ele>7</ele>
        <time>2017-12-02T15:26:29Z</time>
      </trkpt>
      <trkpt lat="47.35123" lon="-1.13697">
        <ele>7</ele>
        <time>2017-12-02T15:26:31Z</time>
      </trkpt>
      <trkpt lat="47.35106" lon="-1.13692">
        <ele>7</ele>
        <time>2017-12-02T15:26:35Z</time>
      </trkpt>
      <trkpt lat="47.35102" lon="-1.13691">
        <ele>7</ele>
        <time>2017-12-02T15:26:36Z</time>
      </trkpt>
      <trkpt lat="47.3509" lon="-1.1369">
        <ele>8</ele>
        <time>2017-12-02T15:26:39Z</time>
      </trkpt>
      <trkpt lat="47.35082" lon="-1.13688">
        <ele>8</ele>
        <time>2017-12-02T15:26:41Z</time>
      </trkpt>
      <trkpt lat="47.35077" lon="-1.13686">
        <ele>8</ele>
        <time>2017-12-02T15:26:42Z</time>
      </trkpt>
      <trkpt lat="47.3504" lon="-1.13673">
        <ele>9</ele>
        <time>2017-12-02T15:26:51Z</time>
      </trkpt>
      <trkpt lat="47.35032" lon="-1.1367">
        <ele>9</ele>
        <time>2017-12-02T15:26:53Z</time>
      </trkpt>
      <trkpt lat="47.35028" lon="-1.13668">
        <ele>9</ele>
        <time>2017-12-02T15:26:54Z</time>
      </trkpt>
      <trkpt lat="47.3502" lon="-1.13665">
        <ele>9</ele>
        <time>2017-12-02T15:26:56Z</time>
      </trkpt>
      <trkpt lat="47.34986" lon="-1.13654">
        <ele>10</ele>
        <time>2017-12-02T15:27:05Z</time>
      </trkpt>
      <trkpt lat="47.34982" lon="-1.13653">
        <ele>10</ele>
        <time>2017-12-02T15:27:06Z</time>
      </trkpt>
      <trkpt lat="47.34965" lon="-1.13647">
        <ele>10</ele>
        <time>2017-12-02T15:27:11Z</time>
      </trkpt>
      <trkpt lat="47.34947" lon="-1.13645">
        <ele>11</ele>
        <time>2017-12-02T15:27:16Z</time>
      </trkpt>
      <trkpt lat="47.34932" lon="-1.13642">
        <ele>12</ele>
        <time>2017-12-02T15:27:22Z</time>
      </trkpt>
      <trkpt lat="47.34931" lon="-1.13638">
        <ele>12</ele>
        <time>2017-12-02T15:28:28Z</time>
      </trkpt>
      <trkpt lat="47.3493" lon="-1.13631">
        <ele>12</ele>
        <time>2017-12-02T15:28:30Z</time>
      </trkpt>
      <trkpt lat="47.3493" lon="-1.13621">
        <ele>12</ele>
        <time>2017-12-02T15:28:32Z</time>
      </trkpt>
      <trkpt lat="47.34931" lon="-1.13609">
        <ele>12</ele>
        <time>2017-12-02T15:28:34Z</time>
      </trkpt>
      <trkpt lat="47.34931" lon="-1.13603">
        <ele>12</ele>
        <time>2017-12-02T15:28:35Z</time>
      </trkpt>
      <trkpt lat="47.34931" lon="-1.13589">
        <ele>12</ele>
        <time>2017-12-02T15:28:37Z</time>
      </trkpt>
      <trkpt lat="47.3493" lon="-1.13568">
        <ele>12</ele>
        <time>2017-12-02T15:28:40Z</time>
      </trkpt>
      <trkpt lat="47.34924" lon="-1.13532">
        <ele>12</ele>
        <time>2017-12-02T15:28:46Z</time>
      </trkpt>
      <trkpt lat="47.34909" lon="-1.13479">
        <ele>12</ele>
        <time>2017-12-02T15:28:54Z</time>
      </trkpt>
      <trkpt lat="47.34893" lon="-1.13424">
        <ele>12</ele>
        <time>2017-12-02T15:29:03Z</time>
      </trkpt>
      <trkpt lat="47.3488" lon="-1.13365">
        <ele>13</ele>
        <time>2017-12-02T15:29:12Z</time>
      </trkpt>
      <trkpt lat="47.34877" lon="-1.13305">
        <ele>13</ele>
        <time>2017-12-02T15:29:21Z</time>
      </trkpt>
      <trkpt lat="47.34871" lon="-1.13246">
        <ele>14</ele>
        <time>2017-12-02T15:29:30Z</time>
      </trkpt>
      <trkpt lat="47.34857" lon="-1.13185">
        <ele>14</ele>
        <time>2017-12-02T15:29:40Z</time>
      </trkpt>
      <trkpt lat="47.34852" lon="-1.13168">
        <ele>14</ele>
        <time>2017-12-02T15:29:43Z</time>
      </trkpt>
      <trkpt lat="47.34842" lon="-1.13146">
        <ele>14</ele>
        <time>2017-12-02T15:29:47Z</time>
      </trkpt>
      <trkpt lat="47.34817" lon="-1.13098">
        <ele>15</ele>
        <time>2017-12-02T15:29:57Z</time>
      </trkpt>
      <trkpt lat="47.348" lon="-1.13066">
        <ele>15</ele>
        <time>2017-12-02T15:30:04Z</time>
      </trkpt>
      <trkpt lat="47.34795" lon="-1.13056">
        <ele>15</ele>
        <time>2017-12-02T15:30:06Z</time>
      </trkpt>
      <trkpt lat="47.34783" lon="-1.13032">
        <ele>16</ele>
        <time>2017-12-02T15:30:13Z</time>
      </trkpt>
      <trkpt lat="47.3478" lon="-1.1303">
        <ele>16</ele>
        <time>2017-12-02T15:30:15Z</time>
      </trkpt>
      <trkpt lat="47.34779" lon="-1.1303">
        <ele>15</ele>
        <time>2017-12-02T15:30:43Z</time>
      </trkpt>
      <trkpt lat="47.34778" lon="-1.13031">
        <ele>15</ele>
        <time>2017-12-02T15:30:44Z</time>
      </trkpt>
      <trkpt lat="47.34767" lon="-1.13036">
        <ele>15</ele>
        <time>2017-12-02T15:30:48Z</time>
      </trkpt>
      <trkpt lat="47.34742" lon="-1.13039">
        <ele>16</ele>
        <time>2017-12-02T15:30:54Z</time>
      </trkpt>
      <trkpt lat="47.34728" lon="-1.1304">
        <ele>16</ele>
        <time>2017-12-02T15:30:57Z</time>
      </trkpt>
      <trkpt lat="47.34711" lon="-1.1304">
        <ele>17</ele>
        <time>2017-12-02T15:31:01Z</time>
      </trkpt>
      <trkpt lat="47.34684" lon="-1.13036">
        <ele>17</ele>
        <time>2017-12-02T15:31:08Z</time>
      </trkpt>
      <trkpt lat="47.34669" lon="-1.13035">
        <ele>17</ele>
        <time>2017-12-02T15:31:12Z</time>
      </trkpt>
      <trkpt lat="47.34645" lon="-1.1304">
        <ele>18</ele>
        <time>2017-12-02T15:31:18Z</time>
      </trkpt>
      <trkpt lat="47.3463" lon="-1.13048">
        <ele>19</ele>
        <time>2017-12-02T15:31:22Z</time>
      </trkpt>
      <trkpt lat="47.34614" lon="-1.13057">
        <ele>19</ele>
        <time>2017-12-02T15:31:26Z</time>
      </trkpt>
      <trkpt lat="47.34588" lon="-1.13071">
        <ele>19</ele>
        <time>2017-12-02T15:31:33Z</time>
      </trkpt>
      <trkpt lat="47.34573" lon="-1.1308">
        <ele>20</ele>
        <time>2017-12-02T15:31:37Z</time>
      </trkpt>
      <trkpt lat="47.34562" lon="-1.13087">
        <ele>20</ele>
        <time>2017-12-02T15:31:40Z</time>
      </trkpt>
      <trkpt lat="47.34544" lon="-1.13092">
        <ele>21</ele>
        <time>2017-12-02T15:31:46Z</time>
      </trkpt>
      <trkpt lat="47.3454" lon="-1.1309">
        <ele>21</ele>
        <time>2017-12-02T15:31:48Z</time>
      </trkpt>
      <trkpt lat="47.34535" lon="-1.13086">
        <ele>21</ele>
        <time>2017-12-02T15:32:10Z</time>
      </trkpt>
      <trkpt lat="47.34536" lon="-1.1307">
        <ele>21</ele>
        <time>2017-12-02T15:32:15Z</time>
      </trkpt>
      <trkpt lat="47.34536" lon="-1.13066">
        <ele>21</ele>
        <time>2017-12-02T15:32:16Z</time>
      </trkpt>
      <trkpt lat="47.34538" lon="-1.13047">
        <ele>22</ele>
        <time>2017-12-02T15:32:21Z</time>
      </trkpt>
      <trkpt lat="47.34538" lon="-1.13045">
        <ele>22</ele>
        <time>2017-12-02T15:32:22Z</time>
      </trkpt>
      <trkpt lat="47.34536" lon="-1.13044">
        <ele>22</ele>
        <time>2017-12-02T15:32:54Z</time>
      </trkpt>
      <trkpt lat="47.34531" lon="-1.13044">
        <ele>22</ele>
        <time>2017-12-02T15:32:56Z</time>
      </trkpt>
      <trkpt lat="47.34511" lon="-1.13044">
        <ele>22</ele>
        <time>2017-12-02T15:33:01Z</time>
      </trkpt>
      <trkpt lat="47.34501" lon="-1.13041">
        <ele>22</ele>
        <time>2017-12-02T15:33:03Z</time>
      </trkpt>
      <trkpt lat="47.34492" lon="-1.13035">
        <ele>23</ele>
        <time>2017-12-02T15:33:05Z</time>
      </trkpt>
      <trkpt lat="47.34488" lon="-1.13032">
        <ele>23</ele>
        <time>2017-12-02T15:33:06Z</time>
      </trkpt>
      <trkpt lat="47.34481" lon="-1.13028">
        <ele>23</ele>
        <time>2017-12-02T15:33:08Z</time>
      </trkpt>
      <trkpt lat="47.34476" lon="-1.13032">
        <ele>23</ele>
        <time>2017-12-02T15:33:10Z</time>
      </trkpt>
      <trkpt lat="47.3447" lon="-1.13042">
        <ele>23</ele>
        <time>2017-12-02T15:33:12Z</time>
      </trkpt>
      <trkpt lat="47.34465" lon="-1.13053">
        <ele>24</ele>
        <time>2017-12-02T15:33:14Z</time>
      </trkpt>
      <trkpt lat="47.34461" lon="-1.13058">
        <ele>24</ele>
        <time>2017-12-02T15:33:15Z</time>
      </trkpt>
      <trkpt lat="47.3445" lon="-1.13069">
        <ele>24</ele>
        <time>2017-12-02T15:33:18Z</time>
      </trkpt>
      <trkpt lat="47.34442" lon="-1.13073">
        <ele>24</ele>
        <time>2017-12-02T15:33:20Z</time>
      </trkpt>
      <trkpt lat="47.34431" lon="-1.13086">
        <ele>24</ele>
        <time>2017-12-02T15:33:24Z</time>
      </trkpt>
      <trkpt lat="47.34427" lon="-1.13107">
        <ele>24</ele>
        <time>2017-12-02T15:33:28Z</time>
      </trkpt>
      <trkpt lat="47.34425" lon="-1.13116">
        <ele>24</ele>
        <time>2017-12-02T15:33:30Z</time>
      </trkpt>
      <trkpt lat="47.34409" lon="-1.13125">
        <ele>24</ele>
        <time>2017-12-02T15:34:08Z</time>
      </trkpt>
      <trkpt lat="47.34403" lon="-1.13125">
        <ele>24</ele>
        <time>2017-12-02T15:34:11Z</time>
      </trkpt>
      <trkpt lat="47.34386" lon="-1.13123">
        <ele>24</ele>
        <time>2017-12-02T15:34:17Z</time>
      </trkpt>
      <trkpt lat="47.34383" lon="-1.13122">
        <ele>24</ele>
        <time>2017-12-02T15:34:18Z</time>
      </trkpt>
      <trkpt lat="47.34364" lon="-1.13119">
        <ele>24</ele>
        <time>2017-12-02T15:34:25Z</time>
      </trkpt>
      <trkpt lat="47.34348" lon="-1.13114">
        <ele>24</ele>
        <time>2017-12-02T15:34:32Z</time>
      </trkpt>
      <trkpt lat="47.34329" lon="-1.13114">
        <ele>25</ele>
        <time>2017-12-02T15:34:40Z</time>
      </trkpt>
      <trkpt lat="47.34308" lon="-1.13124">
        <ele>25</ele>
        <time>2017-12-02T15:34:47Z</time>
      </trkpt>
      <trkpt lat="47.34304" lon="-1.13126">
        <ele>25</ele>
        <time>2017-12-02T15:34:48Z</time>
      </trkpt>
      <trkpt lat="47.34287" lon="-1.13133">
        <ele>25</ele>
        <time>2017-12-02T15:34:53Z</time>
      </trkpt>
      <trkpt lat="47.34263" lon="-1.13139">
        <ele>25</ele>
        <time>2017-12-02T15:35:00Z</time>
      </trkpt>
      <trkpt lat="47.34243" lon="-1.13143">
        <ele>25</ele>
        <time>2017-12-02T15:35:06Z</time>
      </trkpt>
      <trkpt lat="47.34226" lon="-1.13146">
        <ele>25</ele>
        <time>2017-12-02T15:35:12Z</time>
      </trkpt>
      <trkpt lat="47.34209" lon="-1.13147">
        <ele>26</ele>
        <time>2017-12-02T15:35:19Z</time>
      </trkpt>
      <trkpt lat="47.34204" lon="-1.13147">
        <ele>26</ele>
        <time>2017-12-02T15:35:21Z</time>
      </trkpt>
      <trkpt lat="47.34192" lon="-1.13151">
        <ele>26</ele>
        <time>2017-12-02T15:35:25Z</time>
      </trkpt>
      <trkpt lat="47.34186" lon="-1.13156">
        <ele>27</ele>
        <time>2017-12-02T15:35:28Z</time>
      </trkpt>
      <trkpt lat="47.34183" lon="-1.1316">
        <ele>27</ele>
        <time>2017-12-02T15:35:30Z</time>
      </trkpt>
      <trkpt lat="47.34179" lon="-1.13163">
        <ele>28</ele>
        <time>2017-12-02T15:36:18Z</time>
      </trkpt>
      <trkpt lat="47.34178" lon="-1.13164">
        <ele>28</ele>
        <time>2017-12-02T15:36:19Z</time>
      </trkpt>
      <trkpt lat="47.34176" lon="-1.13171">
        <ele>28</ele>
        <time>2017-12-02T15:36:23Z</time>
      </trkpt>
      <trkpt lat="47.34176" lon="-1.13172">
        <ele>28</ele>
        <time>2017-12-02T15:36:24Z</time>
      </trkpt>
      <trkpt lat="47.34173" lon="-1.13173">
        <ele>28</ele>
        <time>2017-12-02T15:36:29Z</time>
      </trkpt>
      <trkpt lat="47.34172" lon="-1.13174">
        <ele>28</ele>
        <time>2017-12-02T15:36:30Z</time>
      </trkpt>
      <trkpt lat="47.34161" lon="-1.13181">
        <ele>29</ele>
        <time>2017-12-02T15:36:36Z</time>
      </trkpt>
      <trkpt lat="47.34152" lon="-1.13192">
        <ele>29</ele>
        <time>2017-12-02T15:36:41Z</time>
      </trkpt>
      <trkpt lat="47.34145" lon="-1.132">
        <ele>30</ele>
        <time>2017-12-02T15:36:45Z</time>
      </trkpt>
      <trkpt lat="47.3414" lon="-1.13205">
        <ele>31</ele>
        <time>2017-12-02T15:36:48Z</time>
      </trkpt>
      <trkpt lat="47.34132" lon="-1.13211">
        <ele>31</ele>
        <time>2017-12-02T15:36:53Z</time>
      </trkpt>
      <trkpt lat="47.34129" lon="-1.13213">
        <ele>32</ele>
        <time>2017-12-02T15:36:55Z</time>
      </trkpt>
      <trkpt lat="47.34122" lon="-1.13219">
        <ele>33</ele>
        <time>2017-12-02T15:37:00Z</time>
      </trkpt>
      <trkpt lat="47.34121" lon="-1.1322">
        <ele>33</ele>
        <time>2017-12-02T15:37:01Z</time>
      </trkpt>
      <trkpt lat="47.34112" lon="-1.13228">
        <ele>34</ele>
        <time>2017-12-02T15:37:08Z</time>
      </trkpt>
      <trkpt lat="47.34107" lon="-1.13231">
        <ele>35</ele>
        <time>2017-12-02T15:37:13Z</time>
      </trkpt>
      <trkpt lat="47.34105" lon="-1.13232">
        <ele>35</ele>
        <time>2017-12-02T15:37:15Z</time>
      </trkpt>
      <trkpt lat="47.34101" lon="-1.13233">
        <ele>36</ele>
        <time>2017-12-02T15:37:18Z</time>
      </trkpt>
      <trkpt lat="47.34096" lon="-1.13234">
        <ele>37</ele>
        <time>2017-12-02T15:37:22Z</time>
      </trkpt>
      <trkpt lat="47.34095" lon="-1.13235">
        <ele>38</ele>
        <time>2017-12-02T15:37:23Z</time>
      </trkpt>
      <trkpt lat="47.34089" lon="-1.13235">
        <ele>38</ele>
        <time>2017-12-02T15:37:27Z</time>
      </trkpt>
      <trkpt lat="47.34085" lon="-1.13234">
        <ele>39</ele>
        <time>2017-12-02T15:37:30Z</time>
      </trkpt>
      <trkpt lat="47.34082" lon="-1.13233">
        <ele>39</ele>
        <time>2017-12-02T15:37:32Z</time>
      </trkpt>
      <trkpt lat="47.34076" lon="-1.13232">
        <ele>41</ele>
        <time>2017-12-02T15:37:37Z</time>
      </trkpt>
      <trkpt lat="47.34074" lon="-1.13232">
        <ele>41</ele>
        <time>2017-12-02T15:37:39Z</time>
      </trkpt>
      <trkpt lat="47.34071" lon="-1.13231">
        <ele>42</ele>
        <time>2017-12-02T15:37:42Z</time>
      </trkpt>
      <trkpt lat="47.34066" lon="-1.13229">
        <ele>43</ele>
        <time>2017-12-02T15:37:46Z</time>
      </trkpt>
      <trkpt lat="47.34059" lon="-1.13229">
        <ele>44</ele>
        <time>2017-12-02T15:37:51Z</time>
      </trkpt>
      <trkpt lat="47.34053" lon="-1.13226">
        <ele>45</ele>
        <time>2017-12-02T15:37:55Z</time>
      </trkpt>
      <trkpt lat="47.34052" lon="-1.13226">
        <ele>45</ele>
        <time>2017-12-02T15:37:56Z</time>
      </trkpt>
      <trkpt lat="47.34045" lon="-1.13221">
        <ele>46</ele>
        <time>2017-12-02T15:38:01Z</time>
      </trkpt>
      <trkpt lat="47.34037" lon="-1.13211">
        <ele>47</ele>
        <time>2017-12-02T15:38:07Z</time>
      </trkpt>
      <trkpt lat="47.34034" lon="-1.13209">
        <ele>48</ele>
        <time>2017-12-02T15:38:09Z</time>
      </trkpt>
      <trkpt lat="47.34029" lon="-1.13204">
        <ele>49</ele>
        <time>2017-12-02T15:38:13Z</time>
      </trkpt>
      <trkpt lat="47.34025" lon="-1.132">
        <ele>49</ele>
        <time>2017-12-02T15:38:16Z</time>
      </trkpt>
      <trkpt lat="47.34019" lon="-1.13195">
        <ele>50</ele>
        <time>2017-12-02T15:38:20Z</time>
      </trkpt>
      <trkpt lat="47.34018" lon="-1.13188">
        <ele>50</ele>
        <time>2017-12-02T15:38:23Z</time>
      </trkpt>
      <trkpt lat="47.34019" lon="-1.13176">
        <ele>51</ele>
        <time>2017-12-02T15:38:27Z</time>
      </trkpt>
      <trkpt lat="47.34019" lon="-1.13167">
        <ele>51</ele>
        <time>2017-12-02T15:38:30Z</time>
      </trkpt>
      <trkpt lat="47.3402" lon="-1.13158">
        <ele>52</ele>
        <time>2017-12-02T15:38:33Z</time>
      </trkpt>
      <trkpt lat="47.3402" lon="-1.13143">
        <ele>53</ele>
        <time>2017-12-02T15:38:38Z</time>
      </trkpt>
      <trkpt lat="47.3402" lon="-1.1314">
        <ele>53</ele>
        <time>2017-12-02T15:38:39Z</time>
      </trkpt>
      <trkpt lat="47.34024" lon="-1.13123">
        <ele>54</ele>
        <time>2017-12-02T15:38:45Z</time>
      </trkpt>
      <trkpt lat="47.34024" lon="-1.13115">
        <ele>53</ele>
        <time>2017-12-02T15:42:10Z</time>
      </trkpt>
      <trkpt lat="47.34026" lon="-1.13092">
        <ele>54</ele>
        <time>2017-12-02T15:42:17Z</time>
      </trkpt>
      <trkpt lat="47.34027" lon="-1.13082">
        <ele>54</ele>
        <time>2017-12-02T15:42:20Z</time>
      </trkpt>
      <trkpt lat="47.34029" lon="-1.13067">
        <ele>54</ele>
        <time>2017-12-02T15:42:24Z</time>
      </trkpt>
      <trkpt lat="47.34032" lon="-1.13037">
        <ele>55</ele>
        <time>2017-12-02T15:42:31Z</time>
      </trkpt>
      <trkpt lat="47.34034" lon="-1.13018">
        <ele>55</ele>
        <time>2017-12-02T15:42:35Z</time>
      </trkpt>
      <trkpt lat="47.34035" lon="-1.13007">
        <ele>55</ele>
        <time>2017-12-02T15:42:37Z</time>
      </trkpt>
      <trkpt lat="47.34037" lon="-1.12975">
        <ele>56</ele>
        <time>2017-12-02T15:42:44Z</time>
      </trkpt>
      <trkpt lat="47.34041" lon="-1.12938">
        <ele>56</ele>
        <time>2017-12-02T15:42:52Z</time>
      </trkpt>
      <trkpt lat="47.34042" lon="-1.12933">
        <ele>56</ele>
        <time>2017-12-02T15:42:53Z</time>
      </trkpt>
      <trkpt lat="47.34049" lon="-1.12903">
        <ele>56</ele>
        <time>2017-12-02T15:42:59Z</time>
      </trkpt>
      <trkpt lat="47.34055" lon="-1.12878">
        <ele>55</ele>
        <time>2017-12-02T15:43:03Z</time>
      </trkpt>
      <trkpt lat="47.34059" lon="-1.12853">
        <ele>54</ele>
        <time>2017-12-02T15:43:07Z</time>
      </trkpt>
      <trkpt lat="47.34062" lon="-1.12829">
        <ele>53</ele>
        <time>2017-12-02T15:43:11Z</time>
      </trkpt>
      <trkpt lat="47.34065" lon="-1.12813">
        <ele>52</ele>
        <time>2017-12-02T15:43:14Z</time>
      </trkpt>
      <trkpt lat="47.34066" lon="-1.12807">
        <ele>52</ele>
        <time>2017-12-02T15:43:15Z</time>
      </trkpt>
      <trkpt lat="47.34069" lon="-1.12789">
        <ele>50</ele>
        <time>2017-12-02T15:43:18Z</time>
      </trkpt>
      <trkpt lat="47.3407" lon="-1.12783">
        <ele>50</ele>
        <time>2017-12-02T15:43:19Z</time>
      </trkpt>
      <trkpt lat="47.34069" lon="-1.1277">
        <ele>50</ele>
        <time>2017-12-02T15:43:21Z</time>
      </trkpt>
      <trkpt lat="47.34068" lon="-1.12765">
        <ele>49</ele>
        <time>2017-12-02T15:43:22Z</time>
      </trkpt>
      <trkpt lat="47.34066" lon="-1.12749">
        <ele>47</ele>
        <time>2017-12-02T15:43:25Z</time>
      </trkpt>
      <trkpt lat="47.34066" lon="-1.12739">
        <ele>46</ele>
        <time>2017-12-02T15:43:27Z</time>
      </trkpt>
      <trkpt lat="47.34065" lon="-1.12735">
        <ele>46</ele>
        <time>2017-12-02T15:43:28Z</time>
      </trkpt>
      <trkpt lat="47.34059" lon="-1.12723">
        <ele>45</ele>
        <time>2017-12-02T15:43:32Z</time>
      </trkpt>
      <trkpt lat="47.34055" lon="-1.1272">
        <ele>45</ele>
        <time>2017-12-02T15:43:34Z</time>
      </trkpt>
      <trkpt lat="47.34045" lon="-1.12717">
        <ele>45</ele>
        <time>2017-12-02T15:43:38Z</time>
      </trkpt>
      <trkpt lat="47.34027" lon="-1.12715">
        <ele>45</ele>
        <time>2017-12-02T15:43:45Z</time>
      </trkpt>
      <trkpt lat="47.34015" lon="-1.12713">
        <ele>46</ele>
        <time>2017-12-02T15:43:51Z</time>
      </trkpt>
      <trkpt lat="47.3401" lon="-1.12713">
        <ele>46</ele>
        <time>2017-12-02T15:43:53Z</time>
      </trkpt>
      <trkpt lat="47.33998" lon="-1.12711">
        <ele>47</ele>
        <time>2017-12-02T15:43:59Z</time>
      </trkpt>
      <trkpt lat="47.33994" lon="-1.12711">
        <ele>47</ele>
        <time>2017-12-02T15:44:01Z</time>
      </trkpt>
      <trkpt lat="47.33982" lon="-1.12707">
        <ele>48</ele>
        <time>2017-12-02T15:44:07Z</time>
      </trkpt>
      <trkpt lat="47.33979" lon="-1.12705">
        <ele>48</ele>
        <time>2017-12-02T15:44:09Z</time>
      </trkpt>
      <trkpt lat="47.33972" lon="-1.12703">
        <ele>49</ele>
        <time>2017-12-02T15:44:13Z</time>
      </trkpt>
      <trkpt lat="47.33968" lon="-1.12703">
        <ele>50</ele>
        <time>2017-12-02T15:44:15Z</time>
      </trkpt>
      <trkpt lat="47.33961" lon="-1.12702">
        <ele>51</ele>
        <time>2017-12-02T15:44:19Z</time>
      </trkpt>
      <trkpt lat="47.33954" lon="-1.12701">
        <ele>51</ele>
        <time>2017-12-02T15:44:23Z</time>
      </trkpt>
      <trkpt lat="47.33949" lon="-1.12701">
        <ele>52</ele>
        <time>2017-12-02T15:44:26Z</time>
      </trkpt>
      <trkpt lat="47.3394" lon="-1.127">
        <ele>53</ele>
        <time>2017-12-02T15:44:31Z</time>
      </trkpt>
      <trkpt lat="47.33937" lon="-1.127">
        <ele>53</ele>
        <time>2017-12-02T15:44:33Z</time>
      </trkpt>
      <trkpt lat="47.33935" lon="-1.12699">
        <ele>54</ele>
        <time>2017-12-02T15:44:34Z</time>
      </trkpt>
      <trkpt lat="47.33926" lon="-1.12698">
        <ele>55</ele>
        <time>2017-12-02T15:44:39Z</time>
      </trkpt>
      <trkpt lat="47.33923" lon="-1.12696">
        <ele>55</ele>
        <time>2017-12-02T15:44:41Z</time>
      </trkpt>
      <trkpt lat="47.33917" lon="-1.12694">
        <ele>56</ele>
        <time>2017-12-02T15:44:44Z</time>
      </trkpt>
      <trkpt lat="47.33912" lon="-1.12694">
        <ele>56</ele>
        <time>2017-12-02T15:44:47Z</time>
      </trkpt>
      <trkpt lat="47.33908" lon="-1.12693">
        <ele>57</ele>
        <time>2017-12-02T15:44:49Z</time>
      </trkpt>
      <trkpt lat="47.33897" lon="-1.12692">
        <ele>58</ele>
        <time>2017-12-02T15:44:55Z</time>
      </trkpt>
      <trkpt lat="47.33895" lon="-1.12692">
        <ele>58</ele>
        <time>2017-12-02T15:44:56Z</time>
      </trkpt>
      <trkpt lat="47.33887" lon="-1.12694">
        <ele>59</ele>
        <time>2017-12-02T15:45:01Z</time>
      </trkpt>
      <trkpt lat="47.33883" lon="-1.12693">
        <ele>60</ele>
        <time>2017-12-02T15:45:03Z</time>
      </trkpt>
      <trkpt lat="47.33877" lon="-1.12691">
        <ele>60</ele>
        <time>2017-12-02T15:45:08Z</time>
      </trkpt>
      <trkpt lat="47.33877" lon="-1.12686">
        <ele>61</ele>
        <time>2017-12-02T15:45:10Z</time>
      </trkpt>
      <trkpt lat="47.33877" lon="-1.12681">
        <ele>61</ele>
        <time>2017-12-02T15:45:12Z</time>
      </trkpt>
      <trkpt lat="47.33877" lon="-1.12667">
        <ele>62</ele>
        <time>2017-12-02T15:45:17Z</time>
      </trkpt>
      <trkpt lat="47.33877" lon="-1.12647">
        <ele>62</ele>
        <time>2017-12-02T15:45:23Z</time>
      </trkpt>
      <trkpt lat="47.33876" lon="-1.12637">
        <ele>63</ele>
        <time>2017-12-02T15:45:26Z</time>
      </trkpt>
      <trkpt lat="47.33879" lon="-1.12611">
        <ele>63</ele>
        <time>2017-12-02T15:45:34Z</time>
      </trkpt>
      <trkpt lat="47.33882" lon="-1.12595">
        <ele>63</ele>
        <time>2017-12-02T15:45:39Z</time>
      </trkpt>
      <trkpt lat="47.33884" lon="-1.12582">
        <ele>64</ele>
        <time>2017-12-02T15:45:43Z</time>
      </trkpt>
      <trkpt lat="47.33886" lon="-1.12567">
        <ele>64</ele>
        <time>2017-12-02T15:45:47Z</time>
      </trkpt>
      <trkpt lat="47.33887" lon="-1.12553">
        <ele>65</ele>
        <time>2017-12-02T15:45:51Z</time>
      </trkpt>
      <trkpt lat="47.33889" lon="-1.12541">
        <ele>66</ele>
        <time>2017-12-02T15:45:54Z</time>
      </trkpt>
      <trkpt lat="47.33891" lon="-1.12515">
        <ele>66</ele>
        <time>2017-12-02T15:46:01Z</time>
      </trkpt>
      <trkpt lat="47.33894" lon="-1.12499">
        <ele>67</ele>
        <time>2017-12-02T15:46:05Z</time>
      </trkpt>
      <trkpt lat="47.33898" lon="-1.12475">
        <ele>67</ele>
        <time>2017-12-02T15:46:11Z</time>
      </trkpt>
      <trkpt lat="47.33899" lon="-1.12467">
        <ele>68</ele>
        <time>2017-12-02T15:46:13Z</time>
      </trkpt>
      <trkpt lat="47.33904" lon="-1.12443">
        <ele>68</ele>
        <time>2017-12-02T15:46:19Z</time>
      </trkpt>
      <trkpt lat="47.33907" lon="-1.12428">
        <ele>69</ele>
        <time>2017-12-02T15:46:24Z</time>
      </trkpt>
      <trkpt lat="47.33908" lon="-1.12424">
        <ele>69</ele>
        <time>2017-12-02T15:46:26Z</time>
      </trkpt>
      <trkpt lat="47.33909" lon="-1.12382">
        <ele>68</ele>
        <time>2017-12-02T15:50:18Z</time>
      </trkpt>
      <trkpt lat="47.3391" lon="-1.12386">
        <ele>68</ele>
        <time>2017-12-02T15:50:19Z</time>
      </trkpt>
      <trkpt lat="47.33908" lon="-1.12408">
        <ele>68</ele>
        <time>2017-12-02T15:50:25Z</time>
      </trkpt>
      <trkpt lat="47.33903" lon="-1.12443">
        <ele>68</ele>
        <time>2017-12-02T15:50:33Z</time>
      </trkpt>
      <trkpt lat="47.33899" lon="-1.12466">
        <ele>68</ele>
        <time>2017-12-02T15:50:38Z</time>
      </trkpt>
      <trkpt lat="47.33898" lon="-1.12471">
        <ele>68</ele>
        <time>2017-12-02T15:50:39Z</time>
      </trkpt>
      <trkpt lat="47.33891" lon="-1.12508">
        <ele>67</ele>
        <time>2017-12-02T15:50:46Z</time>
      </trkpt>
      <trkpt lat="47.33888" lon="-1.12533">
        <ele>67</ele>
        <time>2017-12-02T15:50:50Z</time>
      </trkpt>
      <trkpt lat="47.33884" lon="-1.12567">
        <ele>66</ele>
        <time>2017-12-02T15:50:55Z</time>
      </trkpt>
      <trkpt lat="47.33881" lon="-1.12589">
        <ele>65</ele>
        <time>2017-12-02T15:50:58Z</time>
      </trkpt>
      <trkpt lat="47.33878" lon="-1.12611">
        <ele>64</ele>
        <time>2017-12-02T15:51:01Z</time>
      </trkpt>
      <trkpt lat="47.33875" lon="-1.12627">
        <ele>64</ele>
        <time>2017-12-02T15:51:03Z</time>
      </trkpt>
      <trkpt lat="47.33876" lon="-1.12658">
        <ele>63</ele>
        <time>2017-12-02T15:51:07Z</time>
      </trkpt>
      <trkpt lat="47.33876" lon="-1.12665">
        <ele>63</ele>
        <time>2017-12-02T15:51:08Z</time>
      </trkpt>
      <trkpt lat="47.33876" lon="-1.12695">
        <ele>62</ele>
        <time>2017-12-02T15:51:12Z</time>
      </trkpt>
      <trkpt lat="47.33875" lon="-1.12721">
        <ele>62</ele>
        <time>2017-12-02T15:51:16Z</time>
      </trkpt>
      <trkpt lat="47.33874" lon="-1.12734">
        <ele>61</ele>
        <time>2017-12-02T15:51:18Z</time>
      </trkpt>
      <trkpt lat="47.33871" lon="-1.12768">
        <ele>61</ele>
        <time>2017-12-02T15:51:24Z</time>
      </trkpt>
      <trkpt lat="47.33867" lon="-1.12808">
        <ele>61</ele>
        <time>2017-12-02T15:51:32Z</time>
      </trkpt>
      <trkpt lat="47.33863" lon="-1.12845">
        <ele>61</ele>
        <time>2017-12-02T15:51:40Z</time>
      </trkpt>
      <trkpt lat="47.33861" lon="-1.12876">
        <ele>62</ele>
        <time>2017-12-02T15:51:47Z</time>
      </trkpt>
      <trkpt lat="47.33859" lon="-1.12895">
        <ele>62</ele>
        <time>2017-12-02T15:51:51Z</time>
      </trkpt>
      <trkpt lat="47.33855" lon="-1.12929">
        <ele>63</ele>
        <time>2017-12-02T15:51:57Z</time>
      </trkpt>
      <trkpt lat="47.33846" lon="-1.12977">
        <ele>62</ele>
        <time>2017-12-02T15:52:06Z</time>
      </trkpt>
      <trkpt lat="47.33842" lon="-1.12982">
        <ele>62</ele>
        <time>2017-12-02T15:52:08Z</time>
      </trkpt>
      <trkpt lat="47.33838" lon="-1.12982">
        <ele>62</ele>
        <time>2017-12-02T15:52:10Z</time>
      </trkpt>
      <trkpt lat="47.33836" lon="-1.12981">
        <ele>61</ele>
        <time>2017-12-02T15:52:11Z</time>
      </trkpt>
      <trkpt lat="47.33829" lon="-1.12972">
        <ele>61</ele>
        <time>2017-12-02T15:52:14Z</time>
      </trkpt>
      <trkpt lat="47.33811" lon="-1.12947">
        <ele>62</ele>
        <time>2017-12-02T15:52:21Z</time>
      </trkpt>
      <trkpt lat="47.33791" lon="-1.12916">
        <ele>62</ele>
        <time>2017-12-02T15:52:29Z</time>
      </trkpt>
      <trkpt lat="47.3377" lon="-1.12887">
        <ele>62</ele>
        <time>2017-12-02T15:52:36Z</time>
      </trkpt>
      <trkpt lat="47.33749" lon="-1.12859">
        <ele>62</ele>
        <time>2017-12-02T15:52:44Z</time>
      </trkpt>
      <trkpt lat="47.33731" lon="-1.12833">
        <ele>62</ele>
        <time>2017-12-02T15:52:51Z</time>
      </trkpt>
      <trkpt lat="47.33717" lon="-1.12816">
        <ele>62</ele>
        <time>2017-12-02T15:52:57Z</time>
      </trkpt>
      <trkpt lat="47.337" lon="-1.12799">
        <ele>63</ele>
        <time>2017-12-02T15:53:04Z</time>
      </trkpt>
      <trkpt lat="47.33696" lon="-1.12784">
        <ele>63</ele>
        <time>2017-12-02T15:53:08Z</time>
      </trkpt>
      <trkpt lat="47.33696" lon="-1.12777">
        <ele>63</ele>
        <time>2017-12-02T15:53:10Z</time>
      </trkpt>
      <trkpt lat="47.33697" lon="-1.12763">
        <ele>65</ele>
        <time>2017-12-02T15:53:15Z</time>
      </trkpt>
      <trkpt lat="47.33698" lon="-1.12753">
        <ele>66</ele>
        <time>2017-12-02T15:53:19Z</time>
      </trkpt>
      <trkpt lat="47.33698" lon="-1.12746">
        <ele>66</ele>
        <time>2017-12-02T15:53:22Z</time>
      </trkpt>
      <trkpt lat="47.33699" lon="-1.1274">
        <ele>67</ele>
        <time>2017-12-02T15:53:24Z</time>
      </trkpt>
      <trkpt lat="47.337" lon="-1.12726">
        <ele>68</ele>
        <time>2017-12-02T15:53:29Z</time>
      </trkpt>
      <trkpt lat="47.33701" lon="-1.12723">
        <ele>69</ele>
        <time>2017-12-02T15:53:30Z</time>
      </trkpt>
      <trkpt lat="47.33703" lon="-1.12712">
        <ele>70</ele>
        <time>2017-12-02T15:53:34Z</time>
      </trkpt>
      <trkpt lat="47.33705" lon="-1.12701">
        <ele>70</ele>
        <time>2017-12-02T15:53:38Z</time>
      </trkpt>
      <trkpt lat="47.33706" lon="-1.12699">
        <ele>71</ele>
        <time>2017-12-02T15:53:39Z</time>
      </trkpt>
      <trkpt lat="47.33707" lon="-1.12681">
        <ele>72</ele>
        <time>2017-12-02T15:53:45Z</time>
      </trkpt>
      <trkpt lat="47.33707" lon="-1.12676">
        <ele>72</ele>
        <time>2017-12-02T15:53:47Z</time>
      </trkpt>
      <trkpt lat="47.33709" lon="-1.12671">
        <ele>72</ele>
        <time>2017-12-02T15:53:50Z</time>
      </trkpt>
      <trkpt lat="47.33711" lon="-1.12674">
        <ele>73</ele>
        <time>2017-12-02T15:53:52Z</time>
      </trkpt>
      <trkpt lat="47.33709" lon="-1.12682">
        <ele>73</ele>
        <time>2017-12-02T15:53:55Z</time>
      </trkpt>
      <trkpt lat="47.33707" lon="-1.12691">
        <ele>73</ele>
        <time>2017-12-02T15:53:57Z</time>
      </trkpt>
      <trkpt lat="47.33701" lon="-1.12724">
        <ele>72</ele>
        <time>2017-12-02T15:54:04Z</time>
      </trkpt>
      <trkpt lat="47.33699" lon="-1.12742">
        <ele>71</ele>
        <time>2017-12-02T15:54:08Z</time>
      </trkpt>
      <trkpt lat="47.33697" lon="-1.12755">
        <ele>70</ele>
        <time>2017-12-02T15:54:11Z</time>
      </trkpt>
      <trkpt lat="47.33695" lon="-1.12763">
        <ele>68</ele>
        <time>2017-12-02T15:54:13Z</time>
      </trkpt>
      <trkpt lat="47.33692" lon="-1.12781">
        <ele>67</ele>
        <time>2017-12-02T15:54:17Z</time>
      </trkpt>
      <trkpt lat="47.3369" lon="-1.1279">
        <ele>66</ele>
        <time>2017-12-02T15:54:20Z</time>
      </trkpt>
      <trkpt lat="47.33688" lon="-1.12791">
        <ele>66</ele>
        <time>2017-12-02T15:54:21Z</time>
      </trkpt>
      <trkpt lat="47.33683" lon="-1.1279">
        <ele>65</ele>
        <time>2017-12-02T15:54:23Z</time>
      </trkpt>
      <trkpt lat="47.33676" lon="-1.12786">
        <ele>64</ele>
        <time>2017-12-02T15:54:26Z</time>
      </trkpt>
      <trkpt lat="47.33664" lon="-1.12771">
        <ele>64</ele>
        <time>2017-12-02T15:54:32Z</time>
      </trkpt>
      <trkpt lat="47.33653" lon="-1.12755">
        <ele>65</ele>
        <time>2017-12-02T15:54:38Z</time>
      </trkpt>
      <trkpt lat="47.33643" lon="-1.12739">
        <ele>66</ele>
        <time>2017-12-02T15:54:44Z</time>
      </trkpt>
      <trkpt lat="47.33641" lon="-1.12736">
        <ele>66</ele>
        <time>2017-12-02T15:54:45Z</time>
      </trkpt>
      <trkpt lat="47.33635" lon="-1.12722">
        <ele>66</ele>
        <time>2017-12-02T15:54:49Z</time>
      </trkpt>
      <trkpt lat="47.33628" lon="-1.12708">
        <ele>67</ele>
        <time>2017-12-02T15:54:53Z</time>
      </trkpt>
      <trkpt lat="47.33626" lon="-1.12703">
        <ele>67</ele>
        <time>2017-12-02T15:54:55Z</time>
      </trkpt>
      <trkpt lat="47.3362" lon="-1.12685">
        <ele>68</ele>
        <time>2017-12-02T15:55:00Z</time>
      </trkpt>
      <trkpt lat="47.33619" lon="-1.12682">
        <ele>68</ele>
        <time>2017-12-02T15:55:01Z</time>
      </trkpt>
      <trkpt lat="47.33613" lon="-1.12662">
        <ele>69</ele>
        <time>2017-12-02T15:55:06Z</time>
      </trkpt>
      <trkpt lat="47.33612" lon="-1.12658">
        <ele>69</ele>
        <time>2017-12-02T15:55:07Z</time>
      </trkpt>
      <trkpt lat="47.33607" lon="-1.12641">
        <ele>70</ele>
        <time>2017-12-02T15:55:12Z</time>
      </trkpt>
      <trkpt lat="47.33606" lon="-1.12638">
        <ele>70</ele>
        <time>2017-12-02T15:55:13Z</time>
      </trkpt>
      <trkpt lat="47.33603" lon="-1.12621">
        <ele>71</ele>
        <time>2017-12-02T15:55:18Z</time>
      </trkpt>
      <trkpt lat="47.33602" lon="-1.12616">
        <ele>71</ele>
        <time>2017-12-02T15:55:19Z</time>
      </trkpt>
      <trkpt lat="47.33601" lon="-1.12612">
        <ele>71</ele>
        <time>2017-12-02T15:55:20Z</time>
      </trkpt>
      <trkpt lat="47.33599" lon="-1.12604">
        <ele>71</ele>
        <time>2017-12-02T15:55:22Z</time>
      </trkpt>
      <trkpt lat="47.33595" lon="-1.12585">
        <ele>72</ele>
        <time>2017-12-02T15:55:26Z</time>
      </trkpt>
      <trkpt lat="47.33587" lon="-1.12563">
        <ele>72</ele>
        <time>2017-12-02T15:55:31Z</time>
      </trkpt>
      <trkpt lat="47.33586" lon="-1.1256">
        <ele>72</ele>
        <time>2017-12-02T15:55:32Z</time>
      </trkpt>
      <trkpt lat="47.33575" lon="-1.12542">
        <ele>71</ele>
        <time>2017-12-02T16:08:07Z</time>
      </trkpt>
      <trkpt lat="47.33565" lon="-1.12537">
        <ele>71</ele>
        <time>2017-12-02T16:08:11Z</time>
      </trkpt>
      <trkpt lat="47.33562" lon="-1.12536">
        <ele>71</ele>
        <time>2017-12-02T16:08:12Z</time>
      </trkpt>
      <trkpt lat="47.33541" lon="-1.12532">
        <ele>70</ele>
        <time>2017-12-02T16:08:17Z</time>
      </trkpt>
      <trkpt lat="47.33537" lon="-1.12532">
        <ele>70</ele>
        <time>2017-12-02T16:08:18Z</time>
      </trkpt>
      <trkpt lat="47.33523" lon="-1.12529">
        <ele>69</ele>
        <time>2017-12-02T16:08:21Z</time>
      </trkpt>
      <trkpt lat="47.33512" lon="-1.12522">
        <ele>68</ele>
        <time>2017-12-02T16:08:24Z</time>
      </trkpt>
      <trkpt lat="47.33508" lon="-1.1252">
        <ele>67</ele>
        <time>2017-12-02T16:08:25Z</time>
      </trkpt>
      <trkpt lat="47.33505" lon="-1.12518">
        <ele>67</ele>
        <time>2017-12-02T16:08:26Z</time>
      </trkpt>
      <trkpt lat="47.33498" lon="-1.1251">
        <ele>65</ele>
        <time>2017-12-02T16:08:29Z</time>
      </trkpt>
      <trkpt lat="47.33494" lon="-1.12507">
        <ele>65</ele>
        <time>2017-12-02T16:08:31Z</time>
      </trkpt>
      <trkpt lat="47.33492" lon="-1.12506">
        <ele>64</ele>
        <time>2017-12-02T16:08:32Z</time>
      </trkpt>
      <trkpt lat="47.33488" lon="-1.12507">
        <ele>63</ele>
        <time>2017-12-02T16:08:35Z</time>
      </trkpt>
      <trkpt lat="47.33486" lon="-1.12508">
        <ele>63</ele>
        <time>2017-12-02T16:08:36Z</time>
      </trkpt>
      <trkpt lat="47.33478" lon="-1.12517">
        <ele>62</ele>
        <time>2017-12-02T16:08:40Z</time>
      </trkpt>
      <trkpt lat="47.33476" lon="-1.12521">
        <ele>62</ele>
        <time>2017-12-02T16:08:41Z</time>
      </trkpt>
      <trkpt lat="47.33455" lon="-1.12555">
        <ele>62</ele>
        <time>2017-12-02T16:08:49Z</time>
      </trkpt>
      <trkpt lat="47.33432" lon="-1.12595">
        <ele>62</ele>
        <time>2017-12-02T16:08:58Z</time>
      </trkpt>
      <trkpt lat="47.33413" lon="-1.1262">
        <ele>63</ele>
        <time>2017-12-02T16:09:05Z</time>
      </trkpt>
      <trkpt lat="47.33401" lon="-1.12628">
        <ele>64</ele>
        <time>2017-12-02T16:09:09Z</time>
      </trkpt>
      <trkpt lat="47.3339" lon="-1.12632">
        <ele>65</ele>
        <time>2017-12-02T16:09:12Z</time>
      </trkpt>
      <trkpt lat="47.33383" lon="-1.12634">
        <ele>65</ele>
        <time>2017-12-02T16:09:14Z</time>
      </trkpt>
      <trkpt lat="47.33356" lon="-1.12638">
        <ele>66</ele>
        <time>2017-12-02T16:09:21Z</time>
      </trkpt>
      <trkpt lat="47.33352" lon="-1.12637">
        <ele>67</ele>
        <time>2017-12-02T16:09:22Z</time>
      </trkpt>
      <trkpt lat="47.33337" lon="-1.12633">
        <ele>68</ele>
        <time>2017-12-02T16:09:26Z</time>
      </trkpt>
      <trkpt lat="47.33315" lon="-1.12625">
        <ele>68</ele>
        <time>2017-12-02T16:09:32Z</time>
      </trkpt>
      <trkpt lat="47.33308" lon="-1.12622">
        <ele>69</ele>
        <time>2017-12-02T16:09:34Z</time>
      </trkpt>
      <trkpt lat="47.33286" lon="-1.12615">
        <ele>69</ele>
        <time>2017-12-02T16:09:41Z</time>
      </trkpt>
      <trkpt lat="47.33274" lon="-1.1261">
        <ele>70</ele>
        <time>2017-12-02T16:09:45Z</time>
      </trkpt>
      <trkpt lat="47.33261" lon="-1.12605">
        <ele>70</ele>
        <time>2017-12-02T16:09:50Z</time>
      </trkpt>
      <trkpt lat="47.33255" lon="-1.12603">
        <ele>71</ele>
        <time>2017-12-02T16:09:52Z</time>
      </trkpt>
      <trkpt lat="47.33239" lon="-1.12595">
        <ele>72</ele>
        <time>2017-12-02T16:09:58Z</time>
      </trkpt>
      <trkpt lat="47.33222" lon="-1.12589">
        <ele>73</ele>
        <time>2017-12-02T16:10:05Z</time>
      </trkpt>
      <trkpt lat="47.33221" lon="-1.12587">
        <ele>73</ele>
        <time>2017-12-02T16:10:06Z</time>
      </trkpt>
      <trkpt lat="47.33222" lon="-1.12578">
        <ele>74</ele>
        <time>2017-12-02T16:10:32Z</time>
      </trkpt>
      <trkpt lat="47.33228" lon="-1.12558">
        <ele>74</ele>
        <time>2017-12-02T16:10:36Z</time>
      </trkpt>
      <trkpt lat="47.33233" lon="-1.12544">
        <ele>74</ele>
        <time>2017-12-02T16:10:38Z</time>
      </trkpt>
      <trkpt lat="47.33242" lon="-1.12523">
        <ele>74</ele>
        <time>2017-12-02T16:10:41Z</time>
      </trkpt>
      <trkpt lat="47.33259" lon="-1.12481">
        <ele>73</ele>
        <time>2017-12-02T16:10:47Z</time>
      </trkpt>
      <trkpt lat="47.33263" lon="-1.12476">
        <ele>73</ele>
        <time>2017-12-02T16:10:48Z</time>
      </trkpt>
      <trkpt lat="47.33276" lon="-1.12458">
        <ele>72</ele>
        <time>2017-12-02T16:10:52Z</time>
      </trkpt>
      <trkpt lat="47.33282" lon="-1.12448">
        <ele>71</ele>
        <time>2017-12-02T16:10:54Z</time>
      </trkpt>
      <trkpt lat="47.33303" lon="-1.12408">
        <ele>72</ele>
        <time>2017-12-02T16:11:02Z</time>
      </trkpt>
      <trkpt lat="47.33305" lon="-1.12404">
        <ele>72</ele>
        <time>2017-12-02T16:11:03Z</time>
      </trkpt>
      <trkpt lat="47.33309" lon="-1.12388">
        <ele>72</ele>
        <time>2017-12-02T16:11:06Z</time>
      </trkpt>
      <trkpt lat="47.33313" lon="-1.12371">
        <ele>72</ele>
        <time>2017-12-02T16:11:09Z</time>
      </trkpt>
      <trkpt lat="47.33318" lon="-1.12341">
        <ele>72</ele>
        <time>2017-12-02T16:11:15Z</time>
      </trkpt>
      <trkpt lat="47.33322" lon="-1.1232">
        <ele>72</ele>
        <time>2017-12-02T16:11:21Z</time>
      </trkpt>
      <trkpt lat="47.33323" lon="-1.12317">
        <ele>72</ele>
        <time>2017-12-02T16:11:22Z</time>
      </trkpt>
      <trkpt lat="47.3333" lon="-1.12292">
        <ele>72</ele>
        <time>2017-12-02T16:11:27Z</time>
      </trkpt>
      <trkpt lat="47.33334" lon="-1.12275">
        <ele>73</ele>
        <time>2017-12-02T16:11:30Z</time>
      </trkpt>
      <trkpt lat="47.33343" lon="-1.12241">
        <ele>74</ele>
        <time>2017-12-02T16:11:36Z</time>
      </trkpt>
      <trkpt lat="47.33346" lon="-1.12225">
        <ele>74</ele>
        <time>2017-12-02T16:11:39Z</time>
      </trkpt>
      <trkpt lat="47.33349" lon="-1.12199">
        <ele>74</ele>
        <time>2017-12-02T16:11:44Z</time>
      </trkpt>
      <trkpt lat="47.33346" lon="-1.1219">
        <ele>75</ele>
        <time>2017-12-02T16:11:47Z</time>
      </trkpt>
      <trkpt lat="47.33339" lon="-1.12184">
        <ele>75</ele>
        <time>2017-12-02T16:11:50Z</time>
      </trkpt>
      <trkpt lat="47.33333" lon="-1.12182">
        <ele>75</ele>
        <time>2017-12-02T16:11:52Z</time>
      </trkpt>
      <trkpt lat="47.3333" lon="-1.1218">
        <ele>75</ele>
        <time>2017-12-02T16:11:53Z</time>
      </trkpt>
      <trkpt lat="47.33312" lon="-1.12168">
        <ele>76</ele>
        <time>2017-12-02T16:11:59Z</time>
      </trkpt>
      <trkpt lat="47.3331" lon="-1.12166">
        <ele>76</ele>
        <time>2017-12-02T16:12:00Z</time>
      </trkpt>
      <trkpt lat="47.33298" lon="-1.12158">
        <ele>77</ele>
        <time>2017-12-02T16:12:04Z</time>
      </trkpt>
      <trkpt lat="47.33285" lon="-1.12151">
        <ele>78</ele>
        <time>2017-12-02T16:12:09Z</time>
      </trkpt>
      <trkpt lat="47.33283" lon="-1.1215">
        <ele>78</ele>
        <time>2017-12-02T16:12:10Z</time>
      </trkpt>
      <trkpt lat="47.33273" lon="-1.12142">
        <ele>79</ele>
        <time>2017-12-02T16:12:15Z</time>
      </trkpt>
      <trkpt lat="47.33259" lon="-1.12133">
        <ele>80</ele>
        <time>2017-12-02T16:12:22Z</time>
      </trkpt>
      <trkpt lat="47.33257" lon="-1.12132">
        <ele>80</ele>
        <time>2017-12-02T16:12:23Z</time>
      </trkpt>
      <trkpt lat="47.33242" lon="-1.12119">
        <ele>81</ele>
        <time>2017-12-02T16:12:31Z</time>
      </trkpt>
      <trkpt lat="47.33238" lon="-1.12115">
        <ele>81</ele>
        <time>2017-12-02T16:12:33Z</time>
      </trkpt>
      <trkpt lat="47.33223" lon="-1.12103">
        <ele>82</ele>
        <time>2017-12-02T16:12:39Z</time>
      </trkpt>
      <trkpt lat="47.33203" lon="-1.1209">
        <ele>82</ele>
        <time>2017-12-02T16:12:46Z</time>
      </trkpt>
      <trkpt lat="47.33199" lon="-1.12087">
        <ele>82</ele>
        <time>2017-12-02T16:12:47Z</time>
      </trkpt>
      <trkpt lat="47.33175" lon="-1.1207">
        <ele>83</ele>
        <time>2017-12-02T16:12:54Z</time>
      </trkpt>
      <trkpt lat="47.3315" lon="-1.12052">
        <ele>84</ele>
        <time>2017-12-02T16:13:02Z</time>
      </trkpt>
      <trkpt lat="47.33123" lon="-1.12035">
        <ele>85</ele>
        <time>2017-12-02T16:13:11Z</time>
      </trkpt>
      <trkpt lat="47.33112" lon="-1.12027">
        <ele>85</ele>
        <time>2017-12-02T16:13:14Z</time>
      </trkpt>
      <trkpt lat="47.33092" lon="-1.12013">
        <ele>86</ele>
        <time>2017-12-02T16:13:20Z</time>
      </trkpt>
      <trkpt lat="47.33076" lon="-1.12">
        <ele>86</ele>
        <time>2017-12-02T16:13:27Z</time>
      </trkpt>
      <trkpt lat="47.33077" lon="-1.11994">
        <ele>86</ele>
        <time>2017-12-02T16:15:43Z</time>
      </trkpt>
      <trkpt lat="47.33077" lon="-1.11992">
        <ele>86</ele>
        <time>2017-12-02T16:15:44Z</time>
      </trkpt>
      <trkpt lat="47.33078" lon="-1.11988">
        <ele>86</ele>
        <time>2017-12-02T16:15:45Z</time>
      </trkpt>
      <trkpt lat="47.33084" lon="-1.11977">
        <ele>86</ele>
        <time>2017-12-02T16:15:48Z</time>
      </trkpt>
      <trkpt lat="47.33099" lon="-1.11946">
        <ele>86</ele>
        <time>2017-12-02T16:15:55Z</time>
      </trkpt>
      <trkpt lat="47.33115" lon="-1.11911">
        <ele>87</ele>
        <time>2017-12-02T16:16:02Z</time>
      </trkpt>
      <trkpt lat="47.33135" lon="-1.11868">
        <ele>87</ele>
        <time>2017-12-02T16:16:10Z</time>
      </trkpt>
      <trkpt lat="47.33156" lon="-1.11821">
        <ele>86</ele>
        <time>2017-12-02T16:16:18Z</time>
      </trkpt>
      <trkpt lat="47.33176" lon="-1.11768">
        <ele>86</ele>
        <time>2017-12-02T16:16:27Z</time>
      </trkpt>
      <trkpt lat="47.33193" lon="-1.11717">
        <ele>86</ele>
        <time>2017-12-02T16:16:36Z</time>
      </trkpt>
      <trkpt lat="47.33213" lon="-1.11665">
        <ele>85</ele>
        <time>2017-12-02T16:16:45Z</time>
      </trkpt>
      <trkpt lat="47.33215" lon="-1.11659">
        <ele>85</ele>
        <time>2017-12-02T16:16:46Z</time>
      </trkpt>
      <trkpt lat="47.33235" lon="-1.11623">
        <ele>85</ele>
        <time>2017-12-02T16:16:53Z</time>
      </trkpt>
      <trkpt lat="47.33243" lon="-1.11603">
        <ele>84</ele>
        <time>2017-12-02T16:16:57Z</time>
      </trkpt>
      <trkpt lat="47.33249" lon="-1.11591">
        <ele>84</ele>
        <time>2017-12-02T16:17:00Z</time>
      </trkpt>
      <trkpt lat="47.33253" lon="-1.11579">
        <ele>84</ele>
        <time>2017-12-02T16:17:05Z</time>
      </trkpt>
      <trkpt lat="47.33257" lon="-1.11568">
        <ele>84</ele>
        <time>2017-12-02T16:17:10Z</time>
      </trkpt>
      <trkpt lat="47.33274" lon="-1.11554">
        <ele>84</ele>
        <time>2017-12-02T16:17:15Z</time>
      </trkpt>
      <trkpt lat="47.33307" lon="-1.11533">
        <ele>84</ele>
        <time>2017-12-02T16:17:24Z</time>
      </trkpt>
      <trkpt lat="47.33345" lon="-1.11511">
        <ele>84</ele>
        <time>2017-12-02T16:17:34Z</time>
      </trkpt>
      <trkpt lat="47.33381" lon="-1.11488">
        <ele>84</ele>
        <time>2017-12-02T16:17:43Z</time>
      </trkpt>
      <trkpt lat="47.33402" lon="-1.11471">
        <ele>83</ele>
        <time>2017-12-02T16:17:49Z</time>
      </trkpt>
      <trkpt lat="47.33411" lon="-1.11463">
        <ele>83</ele>
        <time>2017-12-02T16:17:52Z</time>
      </trkpt>
      <trkpt lat="47.33438" lon="-1.11441">
        <ele>83</ele>
        <time>2017-12-02T16:18:01Z</time>
      </trkpt>
      <trkpt lat="47.33459" lon="-1.11421">
        <ele>83</ele>
        <time>2017-12-02T16:18:08Z</time>
      </trkpt>
      <trkpt lat="47.33466" lon="-1.11407">
        <ele>83</ele>
        <time>2017-12-02T16:18:11Z</time>
      </trkpt>
      <trkpt lat="47.33468" lon="-1.11401">
        <ele>83</ele>
        <time>2017-12-02T16:18:12Z</time>
      </trkpt>
      <trkpt lat="47.33472" lon="-1.11374">
        <ele>82</ele>
        <time>2017-12-02T16:18:16Z</time>
      </trkpt>
      <trkpt lat="47.33479" lon="-1.11341">
        <ele>82</ele>
        <time>2017-12-02T16:18:21Z</time>
      </trkpt>
      <trkpt lat="47.33486" lon="-1.11302">
        <ele>81</ele>
        <time>2017-12-02T16:18:27Z</time>
      </trkpt>
      <trkpt lat="47.33489" lon="-1.11288">
        <ele>81</ele>
        <time>2017-12-02T16:18:29Z</time>
      </trkpt>
      <trkpt lat="47.33502" lon="-1.11216">
        <ele>80</ele>
        <time>2017-12-02T16:18:39Z</time>
      </trkpt>
      <trkpt lat="47.33503" lon="-1.1121">
        <ele>80</ele>
        <time>2017-12-02T16:18:40Z</time>
      </trkpt>
      <trkpt lat="47.33513" lon="-1.11154">
        <ele>80</ele>
        <time>2017-12-02T16:18:48Z</time>
      </trkpt>
      <trkpt lat="47.33524" lon="-1.11096">
        <ele>79</ele>
        <time>2017-12-02T16:18:56Z</time>
      </trkpt>
      <trkpt lat="47.33525" lon="-1.11088">
        <ele>79</ele>
        <time>2017-12-02T16:18:57Z</time>
      </trkpt>
      <trkpt lat="47.33535" lon="-1.11026">
        <ele>79</ele>
        <time>2017-12-02T16:19:05Z</time>
      </trkpt>
      <trkpt lat="47.33544" lon="-1.10979">
        <ele>78</ele>
        <time>2017-12-02T16:19:12Z</time>
      </trkpt>
      <trkpt lat="47.33546" lon="-1.10967">
        <ele>78</ele>
        <time>2017-12-02T16:19:14Z</time>
      </trkpt>
      <trkpt lat="47.33549" lon="-1.10952">
        <ele>77</ele>
        <time>2017-12-02T16:19:18Z</time>
      </trkpt>
      <trkpt lat="47.33549" lon="-1.1095">
        <ele>77</ele>
        <time>2017-12-02T16:19:48Z</time>
      </trkpt>
      <trkpt lat="47.33551" lon="-1.10949">
        <ele>77</ele>
        <time>2017-12-02T16:19:49Z</time>
      </trkpt>
      <trkpt lat="47.33564" lon="-1.10949">
        <ele>77</ele>
        <time>2017-12-02T16:19:54Z</time>
      </trkpt>
      <trkpt lat="47.33572" lon="-1.10952">
        <ele>77</ele>
        <time>2017-12-02T16:19:56Z</time>
      </trkpt>
      <trkpt lat="47.33593" lon="-1.1096">
        <ele>77</ele>
        <time>2017-12-02T16:20:02Z</time>
      </trkpt>
      <trkpt lat="47.33632" lon="-1.10974">
        <ele>78</ele>
        <time>2017-12-02T16:20:12Z</time>
      </trkpt>
      <trkpt lat="47.33664" lon="-1.10985">
        <ele>78</ele>
        <time>2017-12-02T16:20:20Z</time>
      </trkpt>
      <trkpt lat="47.33689" lon="-1.10994">
        <ele>78</ele>
        <time>2017-12-02T16:20:27Z</time>
      </trkpt>
      <trkpt lat="47.33708" lon="-1.10999">
        <ele>78</ele>
        <time>2017-12-02T16:20:33Z</time>
      </trkpt>
      <trkpt lat="47.3371" lon="-1.1099">
        <ele>77</ele>
        <time>2017-12-02T16:20:47Z</time>
      </trkpt>
      <trkpt lat="47.33708" lon="-1.10976">
        <ele>77</ele>
        <time>2017-12-02T16:20:51Z</time>
      </trkpt>
      <trkpt lat="47.33705" lon="-1.10942">
        <ele>78</ele>
        <time>2017-12-02T16:20:59Z</time>
      </trkpt>
      <trkpt lat="47.33707" lon="-1.10926">
        <ele>78</ele>
        <time>2017-12-02T16:21:03Z</time>
      </trkpt>
      <trkpt lat="47.33709" lon="-1.10903">
        <ele>78</ele>
        <time>2017-12-02T16:21:08Z</time>
      </trkpt>
      <trkpt lat="47.3371" lon="-1.1086">
        <ele>78</ele>
        <time>2017-12-02T16:21:15Z</time>
      </trkpt>
      <trkpt lat="47.33707" lon="-1.10819">
        <ele>79</ele>
        <time>2017-12-02T16:21:22Z</time>
      </trkpt>
      <trkpt lat="47.33702" lon="-1.10786">
        <ele>79</ele>
        <time>2017-12-02T16:21:29Z</time>
      </trkpt>
      <trkpt lat="47.33701" lon="-1.10779">
        <ele>79</ele>
        <time>2017-12-02T16:21:31Z</time>
      </trkpt>
      <trkpt lat="47.33705" lon="-1.10775">
        <ele>78</ele>
        <time>2017-12-02T16:21:33Z</time>
      </trkpt>
      <trkpt lat="47.33716" lon="-1.10772">
        <ele>78</ele>
        <time>2017-12-02T16:21:37Z</time>
      </trkpt>
      <trkpt lat="47.33719" lon="-1.10771">
        <ele>78</ele>
        <time>2017-12-02T16:21:38Z</time>
      </trkpt>
      <trkpt lat="47.33743" lon="-1.10769">
        <ele>79</ele>
        <time>2017-12-02T16:21:44Z</time>
      </trkpt>
      <trkpt lat="47.33758" lon="-1.10767">
        <ele>79</ele>
        <time>2017-12-02T16:21:48Z</time>
      </trkpt>
      <trkpt lat="47.33763" lon="-1.10766">
        <ele>79</ele>
        <time>2017-12-02T16:21:50Z</time>
      </trkpt>
      <trkpt lat="47.33768" lon="-1.10758">
        <ele>79</ele>
        <time>2017-12-02T16:21:54Z</time>
      </trkpt>
      <trkpt lat="47.33768" lon="-1.10732">
        <ele>79</ele>
        <time>2017-12-02T16:22:01Z</time>
      </trkpt>
      <trkpt lat="47.33767" lon="-1.10701">
        <ele>78</ele>
        <time>2017-12-02T16:22:08Z</time>
      </trkpt>
      <trkpt lat="47.33773" lon="-1.10656">
        <ele>78</ele>
        <time>2017-12-02T16:22:17Z</time>
      </trkpt>
      <trkpt lat="47.33778" lon="-1.10605">
        <ele>78</ele>
        <time>2017-12-02T16:22:26Z</time>
      </trkpt>
      <trkpt lat="47.33782" lon="-1.10578">
        <ele>78</ele>
        <time>2017-12-02T16:22:31Z</time>
      </trkpt>
      <trkpt lat="47.33784" lon="-1.10556">
        <ele>78</ele>
        <time>2017-12-02T16:22:35Z</time>
      </trkpt>
      <trkpt lat="47.33787" lon="-1.10515">
        <ele>77</ele>
        <time>2017-12-02T16:22:42Z</time>
      </trkpt>
      <trkpt lat="47.33787" lon="-1.10509">
        <ele>77</ele>
        <time>2017-12-02T16:22:43Z</time>
      </trkpt>
      <trkpt lat="47.3379" lon="-1.10456">
        <ele>77</ele>
        <time>2017-12-02T16:22:52Z</time>
      </trkpt>
      <trkpt lat="47.33785" lon="-1.10413">
        <ele>77</ele>
        <time>2017-12-02T16:22:59Z</time>
      </trkpt>
      <trkpt lat="47.33776" lon="-1.10372">
        <ele>77</ele>
        <time>2017-12-02T16:23:07Z</time>
      </trkpt>
      <trkpt lat="47.33773" lon="-1.1035">
        <ele>77</ele>
        <time>2017-12-02T16:23:13Z</time>
      </trkpt>
      <trkpt lat="47.33773" lon="-1.10328">
        <ele>77</ele>
        <time>2017-12-02T16:23:20Z</time>
      </trkpt>
      <trkpt lat="47.33773" lon="-1.10292">
        <ele>77</ele>
        <time>2017-12-02T16:23:28Z</time>
      </trkpt>
      <trkpt lat="47.33773" lon="-1.10264">
        <ele>77</ele>
        <time>2017-12-02T16:23:36Z</time>
      </trkpt>
      <trkpt lat="47.33772" lon="-1.1024">
        <ele>77</ele>
        <time>2017-12-02T16:23:43Z</time>
      </trkpt>
      <trkpt lat="47.3377" lon="-1.10211">
        <ele>77</ele>
        <time>2017-12-02T16:23:49Z</time>
      </trkpt>
      <trkpt lat="47.33766" lon="-1.1017">
        <ele>77</ele>
        <time>2017-12-02T16:23:57Z</time>
      </trkpt>
      <trkpt lat="47.33762" lon="-1.10132">
        <ele>77</ele>
        <time>2017-12-02T16:24:05Z</time>
      </trkpt>
      <trkpt lat="47.33761" lon="-1.10091">
        <ele>77</ele>
        <time>2017-12-02T16:24:13Z</time>
      </trkpt>
      <trkpt lat="47.33759" lon="-1.10037">
        <ele>77</ele>
        <time>2017-12-02T16:24:24Z</time>
      </trkpt>
      <trkpt lat="47.33757" lon="-1.10006">
        <ele>76</ele>
        <time>2017-12-02T16:24:31Z</time>
      </trkpt>
      <trkpt lat="47.33758" lon="-1.09993">
        <ele>76</ele>
        <time>2017-12-02T16:24:35Z</time>
      </trkpt>
      <trkpt lat="47.33761" lon="-1.09989">
        <ele>76</ele>
        <time>2017-12-02T16:24:37Z</time>
      </trkpt>
      <trkpt lat="47.33763" lon="-1.09988">
        <ele>76</ele>
        <time>2017-12-02T16:24:38Z</time>
      </trkpt>
      <trkpt lat="47.33771" lon="-1.09989">
        <ele>75</ele>
        <time>2017-12-02T16:24:40Z</time>
      </trkpt>
      <trkpt lat="47.3378" lon="-1.09989">
        <ele>75</ele>
        <time>2017-12-02T16:24:42Z</time>
      </trkpt>
      <trkpt lat="47.33798" lon="-1.0999">
        <ele>75</ele>
        <time>2017-12-02T16:24:45Z</time>
      </trkpt>
      <trkpt lat="47.33823" lon="-1.09989">
        <ele>75</ele>
        <time>2017-12-02T16:24:49Z</time>
      </trkpt>
      <trkpt lat="47.33835" lon="-1.0999">
        <ele>75</ele>
        <time>2017-12-02T16:24:51Z</time>
      </trkpt>
      <trkpt lat="47.3385" lon="-1.09989">
        <ele>74</ele>
        <time>2017-12-02T16:24:54Z</time>
      </trkpt>
      <trkpt lat="47.33853" lon="-1.09987">
        <ele>74</ele>
        <time>2017-12-02T16:24:55Z</time>
      </trkpt>
      <trkpt lat="47.33858" lon="-1.09973">
        <ele>74</ele>
        <time>2017-12-02T16:24:58Z</time>
      </trkpt>
      <trkpt lat="47.33863" lon="-1.0996">
        <ele>74</ele>
        <time>2017-12-02T16:25:01Z</time>
      </trkpt>
      <trkpt lat="47.33876" lon="-1.09958">
        <ele>73</ele>
        <time>2017-12-02T16:25:04Z</time>
      </trkpt>
      <trkpt lat="47.33897" lon="-1.09959">
        <ele>73</ele>
        <time>2017-12-02T16:25:08Z</time>
      </trkpt>
      <trkpt lat="47.33912" lon="-1.09959">
        <ele>72</ele>
        <time>2017-12-02T16:25:11Z</time>
      </trkpt>
      <trkpt lat="47.33917" lon="-1.09959">
        <ele>71</ele>
        <time>2017-12-02T16:25:12Z</time>
      </trkpt>
      <trkpt lat="47.33936" lon="-1.09958">
        <ele>70</ele>
        <time>2017-12-02T16:25:16Z</time>
      </trkpt>
      <trkpt lat="47.33939" lon="-1.09958">
        <ele>70</ele>
        <time>2017-12-02T16:25:17Z</time>
      </trkpt>
      <trkpt lat="47.33945" lon="-1.09962">
        <ele>69</ele>
        <time>2017-12-02T16:25:20Z</time>
      </trkpt>
      <trkpt lat="47.33946" lon="-1.09966">
        <ele>69</ele>
        <time>2017-12-02T16:25:21Z</time>
      </trkpt>
      <trkpt lat="47.33944" lon="-1.0998">
        <ele>68</ele>
        <time>2017-12-02T16:25:24Z</time>
      </trkpt>
      <trkpt lat="47.33943" lon="-1.09986">
        <ele>68</ele>
        <time>2017-12-02T16:25:25Z</time>
      </trkpt>
      <trkpt lat="47.33941" lon="-1.09991">
        <ele>68</ele>
        <time>2017-12-02T16:25:26Z</time>
      </trkpt>
      <trkpt lat="47.33933" lon="-1.10026">
        <ele>67</ele>
        <time>2017-12-02T16:25:33Z</time>
      </trkpt>
      <trkpt lat="47.33932" lon="-1.10028">
        <ele>67</ele>
        <time>2017-12-02T16:27:19Z</time>
      </trkpt>
      <trkpt lat="47.3393" lon="-1.10048">
        <ele>67</ele>
        <time>2017-12-02T16:27:24Z</time>
      </trkpt>
      <trkpt lat="47.33926" lon="-1.10081">
        <ele>67</ele>
        <time>2017-12-02T16:27:30Z</time>
      </trkpt>
      <trkpt lat="47.33924" lon="-1.10115">
        <ele>67</ele>
        <time>2017-12-02T16:27:37Z</time>
      </trkpt>
      <trkpt lat="47.33921" lon="-1.1014">
        <ele>67</ele>
        <time>2017-12-02T16:27:43Z</time>
      </trkpt>
      <trkpt lat="47.33911" lon="-1.10176">
        <ele>67</ele>
        <time>2017-12-02T16:27:49Z</time>
      </trkpt>
      <trkpt lat="47.33906" lon="-1.10215">
        <ele>68</ele>
        <time>2017-12-02T16:27:55Z</time>
      </trkpt>
      <trkpt lat="47.33906" lon="-1.10222">
        <ele>68</ele>
        <time>2017-12-02T16:27:56Z</time>
      </trkpt>
      <trkpt lat="47.339" lon="-1.10262">
        <ele>69</ele>
        <time>2017-12-02T16:28:03Z</time>
      </trkpt>
      <trkpt lat="47.339" lon="-1.10267">
        <ele>69</ele>
        <time>2017-12-02T16:28:04Z</time>
      </trkpt>
      <trkpt lat="47.33898" lon="-1.10294">
        <ele>70</ele>
        <time>2017-12-02T16:28:10Z</time>
      </trkpt>
      <trkpt lat="47.33898" lon="-1.1033">
        <ele>70</ele>
        <time>2017-12-02T16:28:18Z</time>
      </trkpt>
      <trkpt lat="47.33898" lon="-1.10361">
        <ele>70</ele>
        <time>2017-12-02T16:28:25Z</time>
      </trkpt>
      <trkpt lat="47.339" lon="-1.10374">
        <ele>70</ele>
        <time>2017-12-02T16:28:27Z</time>
      </trkpt>
      <trkpt lat="47.339" lon="-1.10389">
        <ele>69</ele>
        <time>2017-12-02T16:28:29Z</time>
      </trkpt>
      <trkpt lat="47.33899" lon="-1.10443">
        <ele>68</ele>
        <time>2017-12-02T16:28:36Z</time>
      </trkpt>
      <trkpt lat="47.33899" lon="-1.10506">
        <ele>69</ele>
        <time>2017-12-02T16:28:45Z</time>
      </trkpt>
      <trkpt lat="47.33895" lon="-1.10547">
        <ele>70</ele>
        <time>2017-12-02T16:28:51Z</time>
      </trkpt>
      <trkpt lat="47.33893" lon="-1.10568">
        <ele>70</ele>
        <time>2017-12-02T16:28:55Z</time>
      </trkpt>
      <trkpt lat="47.33894" lon="-1.10579">
        <ele>70</ele>
        <time>2017-12-02T16:28:57Z</time>
      </trkpt>
      <trkpt lat="47.33903" lon="-1.10617">
        <ele>70</ele>
        <time>2017-12-02T16:29:04Z</time>
      </trkpt>
      <trkpt lat="47.33912" lon="-1.10652">
        <ele>69</ele>
        <time>2017-12-02T16:29:11Z</time>
      </trkpt>
      <trkpt lat="47.33913" lon="-1.10656">
        <ele>69</ele>
        <time>2017-12-02T16:29:12Z</time>
      </trkpt>
      <trkpt lat="47.33919" lon="-1.10671">
        <ele>69</ele>
        <time>2017-12-02T16:31:33Z</time>
      </trkpt>
      <trkpt lat="47.33919" lon="-1.10678">
        <ele>69</ele>
        <time>2017-12-02T16:31:35Z</time>
      </trkpt>
      <trkpt lat="47.33917" lon="-1.1069">
        <ele>69</ele>
        <time>2017-12-02T16:31:38Z</time>
      </trkpt>
      <trkpt lat="47.33914" lon="-1.10698">
        <ele>69</ele>
        <time>2017-12-02T16:31:40Z</time>
      </trkpt>
      <trkpt lat="47.33904" lon="-1.10729">
        <ele>70</ele>
        <time>2017-12-02T16:31:47Z</time>
      </trkpt>
      <trkpt lat="47.33903" lon="-1.10734">
        <ele>70</ele>
        <time>2017-12-02T16:31:48Z</time>
      </trkpt>
      <trkpt lat="47.33897" lon="-1.10757">
        <ele>72</ele>
        <time>2017-12-02T16:31:53Z</time>
      </trkpt>
      <trkpt lat="47.33893" lon="-1.10771">
        <ele>72</ele>
        <time>2017-12-02T16:31:56Z</time>
      </trkpt>
      <trkpt lat="47.33884" lon="-1.10794">
        <ele>73</ele>
        <time>2017-12-02T16:32:01Z</time>
      </trkpt>
      <trkpt lat="47.33878" lon="-1.1081">
        <ele>73</ele>
        <time>2017-12-02T16:32:05Z</time>
      </trkpt>
      <trkpt lat="47.33876" lon="-1.10821">
        <ele>73</ele>
        <time>2017-12-02T16:32:08Z</time>
      </trkpt>
      <trkpt lat="47.33879" lon="-1.10826">
        <ele>73</ele>
        <time>2017-12-02T16:32:10Z</time>
      </trkpt>
      <trkpt lat="47.33883" lon="-1.10827">
        <ele>73</ele>
        <time>2017-12-02T16:32:12Z</time>
      </trkpt>
      <trkpt lat="47.33893" lon="-1.10826">
        <ele>73</ele>
        <time>2017-12-02T16:32:57Z</time>
      </trkpt>
      <trkpt lat="47.33899" lon="-1.1083">
        <ele>73</ele>
        <time>2017-12-02T16:33:00Z</time>
      </trkpt>
      <trkpt lat="47.33913" lon="-1.10839">
        <ele>73</ele>
        <time>2017-12-02T16:33:04Z</time>
      </trkpt>
      <trkpt lat="47.33917" lon="-1.10843">
        <ele>72</ele>
        <time>2017-12-02T16:33:05Z</time>
      </trkpt>
      <trkpt lat="47.33938" lon="-1.10857">
        <ele>71</ele>
        <time>2017-12-02T16:33:10Z</time>
      </trkpt>
      <trkpt lat="47.33943" lon="-1.10858">
        <ele>71</ele>
        <time>2017-12-02T16:33:11Z</time>
      </trkpt>
      <trkpt lat="47.33953" lon="-1.10861">
        <ele>70</ele>
        <time>2017-12-02T16:33:13Z</time>
      </trkpt>
      <trkpt lat="47.33962" lon="-1.10864">
        <ele>70</ele>
        <time>2017-12-02T16:33:15Z</time>
      </trkpt>
      <trkpt lat="47.33967" lon="-1.10867">
        <ele>69</ele>
        <time>2017-12-02T16:33:16Z</time>
      </trkpt>
      <trkpt lat="47.33973" lon="-1.10873">
        <ele>68</ele>
        <time>2017-12-02T16:33:18Z</time>
      </trkpt>
      <trkpt lat="47.33978" lon="-1.10881">
        <ele>67</ele>
        <time>2017-12-02T16:33:20Z</time>
      </trkpt>
      <trkpt lat="47.33979" lon="-1.10884">
        <ele>66</ele>
        <time>2017-12-02T16:33:21Z</time>
      </trkpt>
      <trkpt lat="47.33983" lon="-1.1089">
        <ele>65</ele>
        <time>2017-12-02T16:33:23Z</time>
      </trkpt>
      <trkpt lat="47.33986" lon="-1.10895">
        <ele>64</ele>
        <time>2017-12-02T16:33:26Z</time>
      </trkpt>
      <trkpt lat="47.3399" lon="-1.10899">
        <ele>63</ele>
        <time>2017-12-02T16:33:29Z</time>
      </trkpt>
      <trkpt lat="47.33996" lon="-1.109">
        <ele>63</ele>
        <time>2017-12-02T16:33:31Z</time>
      </trkpt>
      <trkpt lat="47.34012" lon="-1.10904">
        <ele>62</ele>
        <time>2017-12-02T16:33:35Z</time>
      </trkpt>
      <trkpt lat="47.34021" lon="-1.10906">
        <ele>61</ele>
        <time>2017-12-02T16:33:37Z</time>
      </trkpt>
      <trkpt lat="47.3403" lon="-1.10907">
        <ele>61</ele>
        <time>2017-12-02T16:33:39Z</time>
      </trkpt>
      <trkpt lat="47.34042" lon="-1.10909">
        <ele>59</ele>
        <time>2017-12-02T16:33:42Z</time>
      </trkpt>
      <trkpt lat="47.34048" lon="-1.10909">
        <ele>59</ele>
        <time>2017-12-02T16:33:44Z</time>
      </trkpt>
      <trkpt lat="47.34049" lon="-1.1091">
        <ele>58</ele>
        <time>2017-12-02T16:33:45Z</time>
      </trkpt>
      <trkpt lat="47.34054" lon="-1.10915">
        <ele>57</ele>
        <time>2017-12-02T16:33:49Z</time>
      </trkpt>
      <trkpt lat="47.34054" lon="-1.10929">
        <ele>57</ele>
        <time>2017-12-02T16:33:53Z</time>
      </trkpt>
      <trkpt lat="47.34051" lon="-1.10938">
        <ele>57</ele>
        <time>2017-12-02T16:33:55Z</time>
      </trkpt>
      <trkpt lat="47.34043" lon="-1.10958">
        <ele>57</ele>
        <time>2017-12-02T16:34:00Z</time>
      </trkpt>
      <trkpt lat="47.34025" lon="-1.10981">
        <ele>57</ele>
        <time>2017-12-02T16:34:07Z</time>
      </trkpt>
      <trkpt lat="47.34008" lon="-1.11009">
        <ele>58</ele>
        <time>2017-12-02T16:34:14Z</time>
      </trkpt>
      <trkpt lat="47.34004" lon="-1.11054">
        <ele>59</ele>
        <time>2017-12-02T16:34:21Z</time>
      </trkpt>
      <trkpt lat="47.34001" lon="-1.11104">
        <ele>59</ele>
        <time>2017-12-02T16:34:29Z</time>
      </trkpt>
      <trkpt lat="47.34" lon="-1.11133">
        <ele>58</ele>
        <time>2017-12-02T16:34:35Z</time>
      </trkpt>
      <trkpt lat="47.34004" lon="-1.11158">
        <ele>58</ele>
        <time>2017-12-02T16:34:41Z</time>
      </trkpt>
      <trkpt lat="47.34006" lon="-1.11159">
        <ele>57</ele>
        <time>2017-12-02T16:34:42Z</time>
      </trkpt>
      <trkpt lat="47.34011" lon="-1.11158">
        <ele>56</ele>
        <time>2017-12-02T16:34:58Z</time>
      </trkpt>
      <trkpt lat="47.34016" lon="-1.11158">
        <ele>56</ele>
        <time>2017-12-02T16:35:00Z</time>
      </trkpt>
      <trkpt lat="47.34023" lon="-1.11156">
        <ele>56</ele>
        <time>2017-12-02T16:35:02Z</time>
      </trkpt>
      <trkpt lat="47.34046" lon="-1.11147">
        <ele>55</ele>
        <time>2017-12-02T16:35:07Z</time>
      </trkpt>
      <trkpt lat="47.34052" lon="-1.11144">
        <ele>55</ele>
        <time>2017-12-02T16:35:08Z</time>
      </trkpt>
      <trkpt lat="47.34067" lon="-1.11136">
        <ele>54</ele>
        <time>2017-12-02T16:35:11Z</time>
      </trkpt>
      <trkpt lat="47.34081" lon="-1.11128">
        <ele>52</ele>
        <time>2017-12-02T16:35:14Z</time>
      </trkpt>
      <trkpt lat="47.3409" lon="-1.11124">
        <ele>51</ele>
        <time>2017-12-02T16:35:16Z</time>
      </trkpt>
      <trkpt lat="47.34101" lon="-1.11118">
        <ele>50</ele>
        <time>2017-12-02T16:35:19Z</time>
      </trkpt>
      <trkpt lat="47.34109" lon="-1.11114">
        <ele>49</ele>
        <time>2017-12-02T16:35:21Z</time>
      </trkpt>
      <trkpt lat="47.34118" lon="-1.11109">
        <ele>48</ele>
        <time>2017-12-02T16:35:23Z</time>
      </trkpt>
      <trkpt lat="47.3413" lon="-1.11102">
        <ele>47</ele>
        <time>2017-12-02T16:35:26Z</time>
      </trkpt>
      <trkpt lat="47.34141" lon="-1.11097">
        <ele>45</ele>
        <time>2017-12-02T16:35:29Z</time>
      </trkpt>
      <trkpt lat="47.34154" lon="-1.11091">
        <ele>43</ele>
        <time>2017-12-02T16:35:32Z</time>
      </trkpt>
      <trkpt lat="47.34165" lon="-1.11087">
        <ele>43</ele>
        <time>2017-12-02T16:35:34Z</time>
      </trkpt>
      <trkpt lat="47.34171" lon="-1.11084">
        <ele>42</ele>
        <time>2017-12-02T16:35:35Z</time>
      </trkpt>
      <trkpt lat="47.3419" lon="-1.11078">
        <ele>41</ele>
        <time>2017-12-02T16:35:38Z</time>
      </trkpt>
      <trkpt lat="47.34202" lon="-1.11074">
        <ele>40</ele>
        <time>2017-12-02T16:35:40Z</time>
      </trkpt>
      <trkpt lat="47.34207" lon="-1.11073">
        <ele>40</ele>
        <time>2017-12-02T16:35:41Z</time>
      </trkpt>
      <trkpt lat="47.3422" lon="-1.11069">
        <ele>38</ele>
        <time>2017-12-02T16:35:44Z</time>
      </trkpt>
      <trkpt lat="47.34225" lon="-1.11067">
        <ele>38</ele>
        <time>2017-12-02T16:35:45Z</time>
      </trkpt>
      <trkpt lat="47.34236" lon="-1.11063">
        <ele>37</ele>
        <time>2017-12-02T16:35:47Z</time>
      </trkpt>
      <trkpt lat="47.34261" lon="-1.11055">
        <ele>36</ele>
        <time>2017-12-02T16:35:51Z</time>
      </trkpt>
      <trkpt lat="47.34281" lon="-1.11047">
        <ele>35</ele>
        <time>2017-12-02T16:35:54Z</time>
      </trkpt>
      <trkpt lat="47.34301" lon="-1.11038">
        <ele>34</ele>
        <time>2017-12-02T16:35:57Z</time>
      </trkpt>
      <trkpt lat="47.34321" lon="-1.11027">
        <ele>33</ele>
        <time>2017-12-02T16:36:00Z</time>
      </trkpt>
      <trkpt lat="47.34341" lon="-1.11016">
        <ele>31</ele>
        <time>2017-12-02T16:36:03Z</time>
      </trkpt>
      <trkpt lat="47.34347" lon="-1.11013">
        <ele>31</ele>
        <time>2017-12-02T16:36:04Z</time>
      </trkpt>
      <trkpt lat="47.34366" lon="-1.11008">
        <ele>30</ele>
        <time>2017-12-02T16:36:07Z</time>
      </trkpt>
      <trkpt lat="47.34378" lon="-1.11006">
        <ele>30</ele>
        <time>2017-12-02T16:36:09Z</time>
      </trkpt>
      <trkpt lat="47.34397" lon="-1.11005">
        <ele>29</ele>
        <time>2017-12-02T16:36:12Z</time>
      </trkpt>
      <trkpt lat="47.34434" lon="-1.11007">
        <ele>28</ele>
        <time>2017-12-02T16:36:18Z</time>
      </trkpt>
      <trkpt lat="47.34475" lon="-1.11013">
        <ele>27</ele>
        <time>2017-12-02T16:36:25Z</time>
      </trkpt>
      <trkpt lat="47.34481" lon="-1.11015">
        <ele>27</ele>
        <time>2017-12-02T16:36:26Z</time>
      </trkpt>
      <trkpt lat="47.34519" lon="-1.11026">
        <ele>26</ele>
        <time>2017-12-02T16:36:33Z</time>
      </trkpt>
      <trkpt lat="47.34525" lon="-1.11028">
        <ele>26</ele>
        <time>2017-12-02T16:36:34Z</time>
      </trkpt>
      <trkpt lat="47.34571" lon="-1.11041">
        <ele>25</ele>
        <time>2017-12-02T16:36:43Z</time>
      </trkpt>
      <trkpt lat="47.34576" lon="-1.11043">
        <ele>25</ele>
        <time>2017-12-02T16:36:44Z</time>
      </trkpt>
      <trkpt lat="47.34594" lon="-1.11047">
        <ele>24</ele>
        <time>2017-12-02T16:36:48Z</time>
      </trkpt>
      <trkpt lat="47.34602" lon="-1.11049">
        <ele>24</ele>
        <time>2017-12-02T16:36:50Z</time>
      </trkpt>
      <trkpt lat="47.34612" lon="-1.11051">
        <ele>24</ele>
        <time>2017-12-02T16:36:55Z</time>
      </trkpt>
      <trkpt lat="47.34617" lon="-1.11057">
        <ele>23</ele>
        <time>2017-12-02T16:37:32Z</time>
      </trkpt>
      <trkpt lat="47.34617" lon="-1.1106">
        <ele>23</ele>
        <time>2017-12-02T16:37:33Z</time>
      </trkpt>
      <trkpt lat="47.3462" lon="-1.11083">
        <ele>23</ele>
        <time>2017-12-02T16:37:38Z</time>
      </trkpt>
      <trkpt lat="47.34628" lon="-1.11121">
        <ele>23</ele>
        <time>2017-12-02T16:37:45Z</time>
      </trkpt>
      <trkpt lat="47.34634" lon="-1.11127">
        <ele>23</ele>
        <time>2017-12-02T16:37:47Z</time>
      </trkpt>
      <trkpt lat="47.34638" lon="-1.11127">
        <ele>23</ele>
        <time>2017-12-02T16:37:48Z</time>
      </trkpt>
      <trkpt lat="47.3465" lon="-1.11119">
        <ele>23</ele>
        <time>2017-12-02T16:37:51Z</time>
      </trkpt>
      <trkpt lat="47.34653" lon="-1.11116">
        <ele>23</ele>
        <time>2017-12-02T16:37:52Z</time>
      </trkpt>
      <trkpt lat="47.34668" lon="-1.11102">
        <ele>23</ele>
        <time>2017-12-02T16:37:56Z</time>
      </trkpt>
      <trkpt lat="47.34698" lon="-1.1108">
        <ele>22</ele>
        <time>2017-12-02T16:38:03Z</time>
      </trkpt>
      <trkpt lat="47.34703" lon="-1.11075">
        <ele>22</ele>
        <time>2017-12-02T16:38:04Z</time>
      </trkpt>
      <trkpt lat="47.3473" lon="-1.11059">
        <ele>21</ele>
        <time>2017-12-02T16:38:09Z</time>
      </trkpt>
      <trkpt lat="47.34742" lon="-1.11055">
        <ele>20</ele>
        <time>2017-12-02T16:38:11Z</time>
      </trkpt>
      <trkpt lat="47.3476" lon="-1.11054">
        <ele>20</ele>
        <time>2017-12-02T16:38:14Z</time>
      </trkpt>
      <trkpt lat="47.34779" lon="-1.11054">
        <ele>19</ele>
        <time>2017-12-02T16:38:17Z</time>
      </trkpt>
      <trkpt lat="47.34815" lon="-1.11056">
        <ele>19</ele>
        <time>2017-12-02T16:38:23Z</time>
      </trkpt>
      <trkpt lat="47.34839" lon="-1.11057">
        <ele>18</ele>
        <time>2017-12-02T16:38:27Z</time>
      </trkpt>
      <trkpt lat="47.34868" lon="-1.11058">
        <ele>18</ele>
        <time>2017-12-02T16:38:32Z</time>
      </trkpt>
      <trkpt lat="47.34895" lon="-1.11059">
        <ele>17</ele>
        <time>2017-12-02T16:38:37Z</time>
      </trkpt>
      <trkpt lat="47.34928" lon="-1.11063">
        <ele>16</ele>
        <time>2017-12-02T16:38:43Z</time>
      </trkpt>
      <trkpt lat="47.34938" lon="-1.11065">
        <ele>16</ele>
        <time>2017-12-02T16:38:45Z</time>
      </trkpt>
      <trkpt lat="47.34963" lon="-1.11072">
        <ele>15</ele>
        <time>2017-12-02T16:38:50Z</time>
      </trkpt>
      <trkpt lat="47.34975" lon="-1.11074">
        <ele>15</ele>
        <time>2017-12-02T16:38:53Z</time>
      </trkpt>
      <trkpt lat="47.34985" lon="-1.11072">
        <ele>14</ele>
        <time>2017-12-02T16:38:56Z</time>
      </trkpt>
      <trkpt lat="47.34999" lon="-1.11053">
        <ele>14</ele>
        <time>2017-12-02T16:39:01Z</time>
      </trkpt>
      <trkpt lat="47.35003" lon="-1.11038">
        <ele>14</ele>
        <time>2017-12-02T16:39:03Z</time>
      </trkpt>
      <trkpt lat="47.35005" lon="-1.11022">
        <ele>14</ele>
        <time>2017-12-02T16:39:05Z</time>
      </trkpt>
      <trkpt lat="47.35006" lon="-1.11014">
        <ele>14</ele>
        <time>2017-12-02T16:39:06Z</time>
      </trkpt>
      <trkpt lat="47.35015" lon="-1.1094">
        <ele>13</ele>
        <time>2017-12-02T16:39:15Z</time>
      </trkpt>
      <trkpt lat="47.35015" lon="-1.10932">
        <ele>13</ele>
        <time>2017-12-02T16:39:16Z</time>
      </trkpt>
      <trkpt lat="47.35023" lon="-1.10893">
        <ele>12</ele>
        <time>2017-12-02T16:39:21Z</time>
      </trkpt>
      <trkpt lat="47.35026" lon="-1.10886">
        <ele>11</ele>
        <time>2017-12-02T16:39:22Z</time>
      </trkpt>
      <trkpt lat="47.35041" lon="-1.10865">
        <ele>11</ele>
        <time>2017-12-02T16:39:26Z</time>
      </trkpt>
      <trkpt lat="47.3507" lon="-1.10834">
        <ele>11</ele>
        <time>2017-12-02T16:39:33Z</time>
      </trkpt>
      <trkpt lat="47.35091" lon="-1.10818">
        <ele>11</ele>
        <time>2017-12-02T16:39:38Z</time>
      </trkpt>
      <trkpt lat="47.35094" lon="-1.10816">
        <ele>11</ele>
        <time>2017-12-02T16:39:39Z</time>
      </trkpt>
      <trkpt lat="47.35107" lon="-1.10801">
        <ele>11</ele>
        <time>2017-12-02T16:39:44Z</time>
      </trkpt>
      <trkpt lat="47.35114" lon="-1.10776">
        <ele>13</ele>
        <time>2017-12-02T16:39:50Z</time>
      </trkpt>
      <trkpt lat="47.35116" lon="-1.10767">
        <ele>13</ele>
        <time>2017-12-02T16:39:52Z</time>
      </trkpt>
      <trkpt lat="47.35119" lon="-1.10753">
        <ele>14</ele>
        <time>2017-12-02T16:39:56Z</time>
      </trkpt>
      <trkpt lat="47.3512" lon="-1.10748">
        <ele>14</ele>
        <time>2017-12-02T16:40:31Z</time>
      </trkpt>
      <trkpt lat="47.35122" lon="-1.10738">
        <ele>14</ele>
        <time>2017-12-02T16:40:34Z</time>
      </trkpt>
      <trkpt lat="47.35132" lon="-1.10713">
        <ele>14</ele>
        <time>2017-12-02T16:40:41Z</time>
      </trkpt>
      <trkpt lat="47.3514" lon="-1.10692">
        <ele>14</ele>
        <time>2017-12-02T16:40:47Z</time>
      </trkpt>
      <trkpt lat="47.35153" lon="-1.10669">
        <ele>14</ele>
        <time>2017-12-02T16:40:53Z</time>
      </trkpt>
      <trkpt lat="47.35168" lon="-1.10644">
        <ele>13</ele>
        <time>2017-12-02T16:41:00Z</time>
      </trkpt>
      <trkpt lat="47.35172" lon="-1.10639">
        <ele>13</ele>
        <time>2017-12-02T16:41:02Z</time>
      </trkpt>
      <trkpt lat="47.35177" lon="-1.10631">
        <ele>12</ele>
        <time>2017-12-02T16:41:06Z</time>
      </trkpt>
      <trkpt lat="47.3518" lon="-1.10624">
        <ele>12</ele>
        <time>2017-12-02T16:41:10Z</time>
      </trkpt>
      <trkpt lat="47.35179" lon="-1.10617">
        <ele>12</ele>
        <time>2017-12-02T16:41:12Z</time>
      </trkpt>
      <trkpt lat="47.35176" lon="-1.10606">
        <ele>12</ele>
        <time>2017-12-02T16:41:15Z</time>
      </trkpt>
      <trkpt lat="47.35174" lon="-1.10596">
        <ele>12</ele>
        <time>2017-12-02T16:41:18Z</time>
      </trkpt>
      <trkpt lat="47.3517" lon="-1.10577">
        <ele>11</ele>
        <time>2017-12-02T16:41:24Z</time>
      </trkpt>
      <trkpt lat="47.35167" lon="-1.10551">
        <ele>11</ele>
        <time>2017-12-02T16:41:31Z</time>
      </trkpt>
      <trkpt lat="47.35168" lon="-1.10536">
        <ele>11</ele>
        <time>2017-12-02T16:41:37Z</time>
      </trkpt>
      <trkpt lat="47.35171" lon="-1.1052">
        <ele>12</ele>
        <time>2017-12-02T16:41:43Z</time>
      </trkpt>
      <trkpt lat="47.35175" lon="-1.10502">
        <ele>12</ele>
        <time>2017-12-02T16:41:48Z</time>
      </trkpt>
      <trkpt lat="47.3518" lon="-1.10474">
        <ele>11</ele>
        <time>2017-12-02T16:41:54Z</time>
      </trkpt>
      <trkpt lat="47.35183" lon="-1.10441">
        <ele>11</ele>
        <time>2017-12-02T16:42:01Z</time>
      </trkpt>
      <trkpt lat="47.35184" lon="-1.10415">
        <ele>10</ele>
        <time>2017-12-02T16:42:07Z</time>
      </trkpt>
      <trkpt lat="47.35187" lon="-1.10377">
        <ele>10</ele>
        <time>2017-12-02T16:42:15Z</time>
      </trkpt>
      <trkpt lat="47.35188" lon="-1.10351">
        <ele>10</ele>
        <time>2017-12-02T16:42:21Z</time>
      </trkpt>
      <trkpt lat="47.35187" lon="-1.10327">
        <ele>11</ele>
        <time>2017-12-02T16:42:27Z</time>
      </trkpt>
      <trkpt lat="47.35184" lon="-1.1031">
        <ele>11</ele>
        <time>2017-12-02T16:42:33Z</time>
      </trkpt>
      <trkpt lat="47.3518" lon="-1.10293">
        <ele>11</ele>
        <time>2017-12-02T16:42:39Z</time>
      </trkpt>
      <trkpt lat="47.35176" lon="-1.10274">
        <ele>11</ele>
        <time>2017-12-02T16:42:45Z</time>
      </trkpt>
      <trkpt lat="47.35172" lon="-1.10239">
        <ele>11</ele>
        <time>2017-12-02T16:42:55Z</time>
      </trkpt>
      <trkpt lat="47.3517" lon="-1.10225">
        <ele>11</ele>
        <time>2017-12-02T16:43:00Z</time>
      </trkpt>
      <trkpt lat="47.35165" lon="-1.10212">
        <ele>11</ele>
        <time>2017-12-02T16:43:07Z</time>
      </trkpt>
      <trkpt lat="47.35163" lon="-1.10197">
        <ele>11</ele>
        <time>2017-12-02T16:43:14Z</time>
      </trkpt>
      <trkpt lat="47.35164" lon="-1.10182">
        <ele>11</ele>
        <time>2017-12-02T16:43:20Z</time>
      </trkpt>
      <trkpt lat="47.35164" lon="-1.1018">
        <ele>11</ele>
        <time>2017-12-02T16:43:21Z</time>
      </trkpt>
      <trkpt lat="47.35165" lon="-1.10171">
        <ele>12</ele>
        <time>2017-12-02T16:43:25Z</time>
      </trkpt>
      <trkpt lat="47.35166" lon="-1.10168">
        <ele>12</ele>
        <time>2017-12-02T16:43:26Z</time>
      </trkpt>
      <trkpt lat="47.35171" lon="-1.10147">
        <ele>12</ele>
        <time>2017-12-02T16:43:34Z</time>
      </trkpt>
      <trkpt lat="47.35172" lon="-1.1013">
        <ele>12</ele>
        <time>2017-12-02T16:43:40Z</time>
      </trkpt>
      <trkpt lat="47.35175" lon="-1.10113">
        <ele>13</ele>
        <time>2017-12-02T16:43:47Z</time>
      </trkpt>
      <trkpt lat="47.35176" lon="-1.10108">
        <ele>13</ele>
        <time>2017-12-02T16:43:49Z</time>
      </trkpt>
      <trkpt lat="47.35179" lon="-1.10094">
        <ele>13</ele>
        <time>2017-12-02T16:43:54Z</time>
      </trkpt>
      <trkpt lat="47.35183" lon="-1.10077">
        <ele>13</ele>
        <time>2017-12-02T16:44:00Z</time>
      </trkpt>
      <trkpt lat="47.35188" lon="-1.10057">
        <ele>14</ele>
        <time>2017-12-02T16:44:07Z</time>
      </trkpt>
      <trkpt lat="47.3519" lon="-1.10054">
        <ele>14</ele>
        <time>2017-12-02T16:44:08Z</time>
      </trkpt>
      <trkpt lat="47.35194" lon="-1.10043">
        <ele>14</ele>
        <time>2017-12-02T16:44:12Z</time>
      </trkpt>
      <trkpt lat="47.35205" lon="-1.10019">
        <ele>14</ele>
        <time>2017-12-02T16:44:20Z</time>
      </trkpt>
      <trkpt lat="47.35215" lon="-1.1">
        <ele>14</ele>
        <time>2017-12-02T16:44:27Z</time>
      </trkpt>
      <trkpt lat="47.35222" lon="-1.09982">
        <ele>14</ele>
        <time>2017-12-02T16:44:33Z</time>
      </trkpt>
      <trkpt lat="47.35231" lon="-1.09966">
        <ele>14</ele>
        <time>2017-12-02T16:44:39Z</time>
      </trkpt>
      <trkpt lat="47.35238" lon="-1.09953">
        <ele>14</ele>
        <time>2017-12-02T16:44:44Z</time>
      </trkpt>
      <trkpt lat="47.35245" lon="-1.09939">
        <ele>13</ele>
        <time>2017-12-02T16:44:52Z</time>
      </trkpt>
      <trkpt lat="47.35248" lon="-1.09934">
        <ele>13</ele>
        <time>2017-12-02T16:44:59Z</time>
      </trkpt>
      <trkpt lat="47.35249" lon="-1.09931">
        <ele>13</ele>
        <time>2017-12-02T16:45:00Z</time>
      </trkpt>
      <trkpt lat="47.3526" lon="-1.09906">
        <ele>13</ele>
        <time>2017-12-02T16:45:06Z</time>
      </trkpt>
      <trkpt lat="47.35269" lon="-1.09884">
        <ele>13</ele>
        <time>2017-12-02T16:45:12Z</time>
      </trkpt>
      <trkpt lat="47.35282" lon="-1.09858">
        <ele>13</ele>
        <time>2017-12-02T16:45:20Z</time>
      </trkpt>
      <trkpt lat="47.35295" lon="-1.09828">
        <ele>13</ele>
        <time>2017-12-02T16:45:30Z</time>
      </trkpt>
      <trkpt lat="47.35301" lon="-1.09807">
        <ele>13</ele>
        <time>2017-12-02T16:45:37Z</time>
      </trkpt>
      <trkpt lat="47.35307" lon="-1.09782">
        <ele>13</ele>
        <time>2017-12-02T16:45:43Z</time>
      </trkpt>
      <trkpt lat="47.35312" lon="-1.09762">
        <ele>13</ele>
        <time>2017-12-02T16:45:49Z</time>
      </trkpt>
      <trkpt lat="47.35314" lon="-1.09752">
        <ele>13</ele>
        <time>2017-12-02T16:45:52Z</time>
      </trkpt>
      <trkpt lat="47.35321" lon="-1.09735">
        <ele>12</ele>
        <time>2017-12-02T16:45:57Z</time>
      </trkpt>
      <trkpt lat="47.35338" lon="-1.09715">
        <ele>12</ele>
        <time>2017-12-02T16:46:02Z</time>
      </trkpt>
      <trkpt lat="47.35341" lon="-1.0971">
        <ele>11</ele>
        <time>2017-12-02T16:46:03Z</time>
      </trkpt>
      <trkpt lat="47.35356" lon="-1.09675">
        <ele>11</ele>
        <time>2017-12-02T16:46:09Z</time>
      </trkpt>
      <trkpt lat="47.35357" lon="-1.09669">
        <ele>10</ele>
        <time>2017-12-02T16:46:10Z</time>
      </trkpt>
      <trkpt lat="47.35362" lon="-1.09632">
        <ele>10</ele>
        <time>2017-12-02T16:46:16Z</time>
      </trkpt>
      <trkpt lat="47.35367" lon="-1.09575">
        <ele>11</ele>
        <time>2017-12-02T16:46:25Z</time>
      </trkpt>
      <trkpt lat="47.35374" lon="-1.09498">
        <ele>11</ele>
        <time>2017-12-02T16:46:37Z</time>
      </trkpt>
      <trkpt lat="47.35375" lon="-1.09472">
        <ele>12</ele>
        <time>2017-12-02T16:46:42Z</time>
      </trkpt>
      <trkpt lat="47.35374" lon="-1.09462">
        <ele>12</ele>
        <time>2017-12-02T16:46:44Z</time>
      </trkpt>
      <trkpt lat="47.35373" lon="-1.09433">
        <ele>12</ele>
        <time>2017-12-02T16:46:51Z</time>
      </trkpt>
      <trkpt lat="47.35369" lon="-1.09417">
        <ele>12</ele>
        <time>2017-12-02T16:46:57Z</time>
      </trkpt>
      <trkpt lat="47.35368" lon="-1.09415">
        <ele>12</ele>
        <time>2017-12-02T16:46:58Z</time>
      </trkpt>
      <trkpt lat="47.35372" lon="-1.0941">
        <ele>12</ele>
        <time>2017-12-02T16:47:01Z</time>
      </trkpt>
      <trkpt lat="47.35377" lon="-1.0941">
        <ele>12</ele>
        <time>2017-12-02T16:47:03Z</time>
      </trkpt>
      <trkpt lat="47.35389" lon="-1.09411">
        <ele>12</ele>
        <time>2017-12-02T16:47:06Z</time>
      </trkpt>
      <trkpt lat="47.35414" lon="-1.09417">
        <ele>12</ele>
        <time>2017-12-02T16:47:10Z</time>
      </trkpt>
      <trkpt lat="47.35457" lon="-1.09431">
        <ele>11</ele>
        <time>2017-12-02T16:47:15Z</time>
      </trkpt>
      <trkpt lat="47.35475" lon="-1.09438">
        <ele>10</ele>
        <time>2017-12-02T16:47:17Z</time>
      </trkpt>
      <trkpt lat="47.35491" lon="-1.09446">
        <ele>9</ele>
        <time>2017-12-02T16:47:19Z</time>
      </trkpt>
      <trkpt lat="47.35498" lon="-1.0945">
        <ele>9</ele>
        <time>2017-12-02T16:47:20Z</time>
      </trkpt>
      <trkpt lat="47.35505" lon="-1.09454">
        <ele>8</ele>
        <time>2017-12-02T16:47:21Z</time>
      </trkpt>
      <trkpt lat="47.35516" lon="-1.09462">
        <ele>7</ele>
        <time>2017-12-02T16:47:23Z</time>
      </trkpt>
      <trkpt lat="47.35526" lon="-1.0947">
        <ele>6</ele>
        <time>2017-12-02T16:47:25Z</time>
      </trkpt>
      <trkpt lat="47.35541" lon="-1.09481">
        <ele>5</ele>
        <time>2017-12-02T16:47:28Z</time>
      </trkpt>
      <trkpt lat="47.35565" lon="-1.09499">
        <ele>4</ele>
        <time>2017-12-02T16:47:33Z</time>
      </trkpt>
      <trkpt lat="47.35573" lon="-1.09505">
        <ele>4</ele>
        <time>2017-12-02T16:47:35Z</time>
      </trkpt>
      <trkpt lat="47.35592" lon="-1.09516">
        <ele>4</ele>
        <time>2017-12-02T16:47:39Z</time>
      </trkpt>
      <trkpt lat="47.35603" lon="-1.09519">
        <ele>4</ele>
        <time>2017-12-02T16:47:41Z</time>
      </trkpt>
      <trkpt lat="47.35615" lon="-1.09519">
        <ele>4</ele>
        <time>2017-12-02T16:47:43Z</time>
      </trkpt>
      <trkpt lat="47.35632" lon="-1.09518">
        <ele>4</ele>
        <time>2017-12-02T16:47:46Z</time>
      </trkpt>
      <trkpt lat="47.35672" lon="-1.0952">
        <ele>4</ele>
        <time>2017-12-02T16:47:54Z</time>
      </trkpt>
      <trkpt lat="47.35686" lon="-1.09526">
        <ele>4</ele>
        <time>2017-12-02T16:47:57Z</time>
      </trkpt>
      <trkpt lat="47.35695" lon="-1.09534">
        <ele>4</ele>
        <time>2017-12-02T16:47:59Z</time>
      </trkpt>
      <trkpt lat="47.35708" lon="-1.09556">
        <ele>4</ele>
        <time>2017-12-02T16:48:03Z</time>
      </trkpt>
      <trkpt lat="47.35722" lon="-1.09589">
        <ele>4</ele>
        <time>2017-12-02T16:48:09Z</time>
      </trkpt>
      <trkpt lat="47.35726" lon="-1.09604">
        <ele>4</ele>
        <time>2017-12-02T16:48:14Z</time>
      </trkpt>
      <trkpt lat="47.35724" lon="-1.09609">
        <ele>3</ele>
        <time>2017-12-02T16:48:28Z</time>
      </trkpt>
      <trkpt lat="47.35723" lon="-1.09612">
        <ele>3</ele>
        <time>2017-12-02T16:48:29Z</time>
      </trkpt>
      <trkpt lat="47.3572" lon="-1.09632">
        <ele>3</ele>
        <time>2017-12-02T16:48:33Z</time>
      </trkpt>
      <trkpt lat="47.35715" lon="-1.09661">
        <ele>3</ele>
        <time>2017-12-02T16:48:39Z</time>
      </trkpt>
      <trkpt lat="47.357" lon="-1.09684">
        <ele>4</ele>
        <time>2017-12-02T16:48:44Z</time>
      </trkpt>
      <trkpt lat="47.35698" lon="-1.0969">
        <ele>4</ele>
        <time>2017-12-02T16:48:45Z</time>
      </trkpt>
      <trkpt lat="47.35697" lon="-1.09709">
        <ele>3</ele>
        <time>2017-12-02T16:48:48Z</time>
      </trkpt>
      <trkpt lat="47.35697" lon="-1.09716">
        <ele>3</ele>
        <time>2017-12-02T16:48:49Z</time>
      </trkpt>
      <trkpt lat="47.35698" lon="-1.09759">
        <ele>4</ele>
        <time>2017-12-02T16:48:55Z</time>
      </trkpt>
      <trkpt lat="47.357" lon="-1.09809">
        <ele>4</ele>
        <time>2017-12-02T16:49:02Z</time>
      </trkpt>
      <trkpt lat="47.35702" lon="-1.09865">
        <ele>3</ele>
        <time>2017-12-02T16:49:10Z</time>
      </trkpt>
      <trkpt lat="47.35704" lon="-1.09923">
        <ele>3</ele>
        <time>2017-12-02T16:49:18Z</time>
      </trkpt>
      <trkpt lat="47.35708" lon="-1.09981">
        <ele>3</ele>
        <time>2017-12-02T16:49:27Z</time>
      </trkpt>
      <trkpt lat="47.35711" lon="-1.10037">
        <ele>3</ele>
        <time>2017-12-02T16:49:36Z</time>
      </trkpt>
      <trkpt lat="47.35712" lon="-1.10067">
        <ele>3</ele>
        <time>2017-12-02T16:49:42Z</time>
      </trkpt>
      <trkpt lat="47.35711" lon="-1.10105">
        <ele>3</ele>
        <time>2017-12-02T16:49:48Z</time>
      </trkpt>
      <trkpt lat="47.35715" lon="-1.10159">
        <ele>3</ele>
        <time>2017-12-02T16:49:56Z</time>
      </trkpt>
      <trkpt lat="47.3572" lon="-1.10213">
        <ele>3</ele>
        <time>2017-12-02T16:50:04Z</time>
      </trkpt>
      <trkpt lat="47.35723" lon="-1.10266">
        <ele>3</ele>
        <time>2017-12-02T16:50:11Z</time>
      </trkpt>
      <trkpt lat="47.35725" lon="-1.10327">
        <ele>3</ele>
        <time>2017-12-02T16:50:20Z</time>
      </trkpt>
      <trkpt lat="47.35727" lon="-1.10369">
        <ele>3</ele>
        <time>2017-12-02T16:50:27Z</time>
      </trkpt>
      <trkpt lat="47.35731" lon="-1.10423">
        <ele>3</ele>
        <time>2017-12-02T16:50:35Z</time>
      </trkpt>
      <trkpt lat="47.35734" lon="-1.10462">
        <ele>3</ele>
        <time>2017-12-02T16:50:41Z</time>
      </trkpt>
      <trkpt lat="47.35735" lon="-1.10496">
        <ele>3</ele>
        <time>2017-12-02T16:50:48Z</time>
      </trkpt>
      <trkpt lat="47.35733" lon="-1.10515">
        <ele>3</ele>
        <time>2017-12-02T16:50:54Z</time>
      </trkpt>
      <trkpt lat="47.35733" lon="-1.10525">
        <ele>3</ele>
        <time>2017-12-02T16:51:09Z</time>
      </trkpt>
      <trkpt lat="47.35736" lon="-1.1054">
        <ele>3</ele>
        <time>2017-12-02T16:51:13Z</time>
      </trkpt>
      <trkpt lat="47.35737" lon="-1.10546">
        <ele>3</ele>
        <time>2017-12-02T16:51:14Z</time>
      </trkpt>
      <trkpt lat="47.35739" lon="-1.10591">
        <ele>3</ele>
        <time>2017-12-02T16:51:22Z</time>
      </trkpt>
      <trkpt lat="47.35739" lon="-1.1064">
        <ele>3</ele>
        <time>2017-12-02T16:51:30Z</time>
      </trkpt>
      <trkpt lat="47.35739" lon="-1.10682">
        <ele>3</ele>
        <time>2017-12-02T16:51:37Z</time>
      </trkpt>
      <trkpt lat="47.3574" lon="-1.10718">
        <ele>3</ele>
        <time>2017-12-02T16:51:43Z</time>
      </trkpt>
      <trkpt lat="47.35739" lon="-1.1077">
        <ele>3</ele>
        <time>2017-12-02T16:51:51Z</time>
      </trkpt>
      <trkpt lat="47.3574" lon="-1.10834">
        <ele>3</ele>
        <time>2017-12-02T16:52:01Z</time>
      </trkpt>
      <trkpt lat="47.35741" lon="-1.10878">
        <ele>3</ele>
        <time>2017-12-02T16:52:08Z</time>
      </trkpt>
      <trkpt lat="47.35742" lon="-1.10925">
        <ele>3</ele>
        <time>2017-12-02T16:52:15Z</time>
      </trkpt>
      <trkpt lat="47.35745" lon="-1.10978">
        <ele>3</ele>
        <time>2017-12-02T16:52:23Z</time>
      </trkpt>
      <trkpt lat="47.35753" lon="-1.11012">
        <ele>3</ele>
        <time>2017-12-02T16:52:29Z</time>
      </trkpt>
      <trkpt lat="47.35772" lon="-1.11056">
        <ele>3</ele>
        <time>2017-12-02T16:52:38Z</time>
      </trkpt>
      <trkpt lat="47.35791" lon="-1.11092">
        <ele>3</ele>
        <time>2017-12-02T16:52:46Z</time>
      </trkpt>
      <trkpt lat="47.35805" lon="-1.11123">
        <ele>3</ele>
        <time>2017-12-02T16:52:52Z</time>
      </trkpt>
      <trkpt lat="47.35807" lon="-1.11129">
        <ele>3</ele>
        <time>2017-12-02T16:52:53Z</time>
      </trkpt>
      <trkpt lat="47.35824" lon="-1.1117">
        <ele>3</ele>
        <time>2017-12-02T16:53:01Z</time>
      </trkpt>
      <trkpt lat="47.35836" lon="-1.11201">
        <ele>3</ele>
        <time>2017-12-02T16:53:07Z</time>
      </trkpt>
      <trkpt lat="47.35853" lon="-1.11254">
        <ele>2</ele>
        <time>2017-12-02T16:53:16Z</time>
      </trkpt>
      <trkpt lat="47.35869" lon="-1.11305">
        <ele>3</ele>
        <time>2017-12-02T16:53:25Z</time>
      </trkpt>
      <trkpt lat="47.35885" lon="-1.11357">
        <ele>3</ele>
        <time>2017-12-02T16:53:34Z</time>
      </trkpt>
      <trkpt lat="47.35901" lon="-1.11407">
        <ele>2</ele>
        <time>2017-12-02T16:53:43Z</time>
      </trkpt>
      <trkpt lat="47.3591" lon="-1.11453">
        <ele>2</ele>
        <time>2017-12-02T16:53:51Z</time>
      </trkpt>
      <trkpt lat="47.35917" lon="-1.11489">
        <ele>2</ele>
        <time>2017-12-02T16:53:58Z</time>
      </trkpt>
      <trkpt lat="47.3592" lon="-1.11508">
        <ele>2</ele>
        <time>2017-12-02T16:54:02Z</time>
      </trkpt>
      <trkpt lat="47.35926" lon="-1.11535">
        <ele>2</ele>
        <time>2017-12-02T16:54:08Z</time>
      </trkpt>
      <trkpt lat="47.35936" lon="-1.11575">
        <ele>2</ele>
        <time>2017-12-02T16:54:16Z</time>
      </trkpt>
      <trkpt lat="47.35942" lon="-1.11599">
        <ele>2</ele>
        <time>2017-12-02T16:54:21Z</time>
      </trkpt>
      <trkpt lat="47.35947" lon="-1.11634">
        <ele>3</ele>
        <time>2017-12-02T16:54:28Z</time>
      </trkpt>
      <trkpt lat="47.35951" lon="-1.11688">
        <ele>3</ele>
        <time>2017-12-02T16:54:36Z</time>
      </trkpt>
      <trkpt lat="47.35951" lon="-1.11736">
        <ele>3</ele>
        <time>2017-12-02T16:54:44Z</time>
      </trkpt>
      <trkpt lat="47.35949" lon="-1.11775">
        <ele>3</ele>
        <time>2017-12-02T16:54:51Z</time>
      </trkpt>
      <trkpt lat="47.35946" lon="-1.11801">
        <ele>3</ele>
        <time>2017-12-02T16:54:56Z</time>
      </trkpt>
      <trkpt lat="47.35942" lon="-1.1183">
        <ele>3</ele>
        <time>2017-12-02T16:55:02Z</time>
      </trkpt>
      <trkpt lat="47.35935" lon="-1.11844">
        <ele>3</ele>
        <time>2017-12-02T16:57:51Z</time>
      </trkpt>
      <trkpt lat="47.35927" lon="-1.11845">
        <ele>3</ele>
        <time>2017-12-02T16:57:54Z</time>
      </trkpt>
      <trkpt lat="47.35905" lon="-1.11847">
        <ele>3</ele>
        <time>2017-12-02T16:57:59Z</time>
      </trkpt>
      <trkpt lat="47.35866" lon="-1.11845">
        <ele>4</ele>
        <time>2017-12-02T16:58:08Z</time>
      </trkpt>
      <trkpt lat="47.35834" lon="-1.11842">
        <ele>4</ele>
        <time>2017-12-02T16:58:16Z</time>
      </trkpt>
      <trkpt lat="47.35825" lon="-1.11841">
        <ele>4</ele>
        <time>2017-12-02T16:58:18Z</time>
      </trkpt>
      <trkpt lat="47.35802" lon="-1.11838">
        <ele>4</ele>
        <time>2017-12-02T16:58:24Z</time>
      </trkpt>
      <trkpt lat="47.358" lon="-1.11842">
        <ele>4</ele>
        <time>2017-12-02T16:58:25Z</time>
      </trkpt>
      <trkpt lat="47.35796" lon="-1.11852">
        <ele>4</ele>
        <time>2017-12-02T16:58:27Z</time>
      </trkpt>
      <trkpt lat="47.35794" lon="-1.11864">
        <ele>4</ele>
        <time>2017-12-02T16:58:29Z</time>
      </trkpt>
      <trkpt lat="47.3579" lon="-1.11892">
        <ele>4</ele>
        <time>2017-12-02T16:58:33Z</time>
      </trkpt>
      <trkpt lat="47.35784" lon="-1.1194">
        <ele>4</ele>
        <time>2017-12-02T16:58:40Z</time>
      </trkpt>
      <trkpt lat="47.35778" lon="-1.11995">
        <ele>3</ele>
        <time>2017-12-02T16:58:48Z</time>
      </trkpt>
      <trkpt lat="47.35775" lon="-1.12017">
        <ele>3</ele>
        <time>2017-12-02T16:58:52Z</time>
      </trkpt>
      <trkpt lat="47.35769" lon="-1.12058">
        <ele>3</ele>
        <time>2017-12-02T16:58:59Z</time>
      </trkpt>
      <trkpt lat="47.35763" lon="-1.12108">
        <ele>3</ele>
        <time>2017-12-02T16:59:07Z</time>
      </trkpt>
      <trkpt lat="47.35762" lon="-1.12151">
        <ele>3</ele>
        <time>2017-12-02T16:59:14Z</time>
      </trkpt>
      <trkpt lat="47.3577" lon="-1.12183">
        <ele>3</ele>
        <time>2017-12-02T16:59:20Z</time>
      </trkpt>
      <trkpt lat="47.35775" lon="-1.12193">
        <ele>3</ele>
        <time>2017-12-02T16:59:22Z</time>
      </trkpt>
      <trkpt lat="47.35786" lon="-1.12215">
        <ele>3</ele>
        <time>2017-12-02T16:59:26Z</time>
      </trkpt>
      <trkpt lat="47.35788" lon="-1.12221">
        <ele>3</ele>
        <time>2017-12-02T16:59:27Z</time>
      </trkpt>
      <trkpt lat="47.358" lon="-1.12247">
        <ele>3</ele>
        <time>2017-12-02T16:59:32Z</time>
      </trkpt>
      <trkpt lat="47.35808" lon="-1.12262">
        <ele>3</ele>
        <time>2017-12-02T16:59:36Z</time>
      </trkpt>
      <trkpt lat="47.35808" lon="-1.12266">
        <ele>3</ele>
        <time>2017-12-02T16:59:37Z</time>
      </trkpt>
      <trkpt lat="47.358" lon="-1.12283">
        <ele>3</ele>
        <time>2017-12-02T16:59:41Z</time>
      </trkpt>
      <trkpt lat="47.35788" lon="-1.12293">
        <ele>3</ele>
        <time>2017-12-02T16:59:45Z</time>
      </trkpt>
      <trkpt lat="47.35785" lon="-1.12297">
        <ele>3</ele>
        <time>2017-12-02T16:59:46Z</time>
      </trkpt>
      <trkpt lat="47.35772" lon="-1.12324">
        <ele>3</ele>
        <time>2017-12-02T16:59:51Z</time>
      </trkpt>
      <trkpt lat="47.35767" lon="-1.12335">
        <ele>3</ele>
        <time>2017-12-02T16:59:53Z</time>
      </trkpt>
      <trkpt lat="47.35757" lon="-1.12349">
        <ele>3</ele>
        <time>2017-12-02T16:59:56Z</time>
      </trkpt>
      <trkpt lat="47.3574" lon="-1.12376">
        <ele>3</ele>
        <time>2017-12-02T17:00:02Z</time>
      </trkpt>
      <trkpt lat="47.35735" lon="-1.12388">
        <ele>3</ele>
        <time>2017-12-02T17:00:04Z</time>
      </trkpt>
      <trkpt lat="47.35729" lon="-1.12404">
        <ele>3</ele>
        <time>2017-12-02T17:00:07Z</time>
      </trkpt>
      <trkpt lat="47.35725" lon="-1.12414">
        <ele>3</ele>
        <time>2017-12-02T17:00:09Z</time>
      </trkpt>
      <trkpt lat="47.35723" lon="-1.12429">
        <ele>2</ele>
        <time>2017-12-02T17:00:13Z</time>
      </trkpt>
      <trkpt lat="47.3572" lon="-1.12435">
        <ele>2</ele>
        <time>2017-12-02T17:00:15Z</time>
      </trkpt>
      <trkpt lat="47.35713" lon="-1.12433">
        <ele>2</ele>
        <time>2017-12-02T17:00:17Z</time>
      </trkpt>
      <trkpt lat="47.35694" lon="-1.1244">
        <ele>3</ele>
        <time>2017-12-02T17:00:22Z</time>
      </trkpt>
      <trkpt lat="47.35687" lon="-1.12454">
        <ele>3</ele>
        <time>2017-12-02T17:00:25Z</time>
      </trkpt>
      <trkpt lat="47.35685" lon="-1.12459">
        <ele>3</ele>
        <time>2017-12-02T17:00:26Z</time>
      </trkpt>
      <trkpt lat="47.35671" lon="-1.12497">
        <ele>3</ele>
        <time>2017-12-02T17:00:34Z</time>
      </trkpt>
      <trkpt lat="47.35659" lon="-1.12535">
        <ele>3</ele>
        <time>2017-12-02T17:00:41Z</time>
      </trkpt>
      <trkpt lat="47.35648" lon="-1.12574">
        <ele>3</ele>
        <time>2017-12-02T17:00:48Z</time>
      </trkpt>
      <trkpt lat="47.35636" lon="-1.12613">
        <ele>3</ele>
        <time>2017-12-02T17:00:55Z</time>
      </trkpt>
      <trkpt lat="47.35631" lon="-1.12649">
        <ele>3</ele>
        <time>2017-12-02T17:01:01Z</time>
      </trkpt>
      <trkpt lat="47.35621" lon="-1.12696">
        <ele>3</ele>
        <time>2017-12-02T17:01:08Z</time>
      </trkpt>
      <trkpt lat="47.35615" lon="-1.1274">
        <ele>3</ele>
        <time>2017-12-02T17:01:15Z</time>
      </trkpt>
      <trkpt lat="47.35613" lon="-1.12761">
        <ele>3</ele>
        <time>2017-12-02T17:01:18Z</time>
      </trkpt>
      <trkpt lat="47.35616" lon="-1.12782">
        <ele>3</ele>
        <time>2017-12-02T17:01:21Z</time>
      </trkpt>
      <trkpt lat="47.35628" lon="-1.12807">
        <ele>3</ele>
        <time>2017-12-02T17:01:26Z</time>
      </trkpt>
      <trkpt lat="47.35631" lon="-1.12829">
        <ele>3</ele>
        <time>2017-12-02T17:01:30Z</time>
      </trkpt>
      <trkpt lat="47.35623" lon="-1.12851">
        <ele>3</ele>
        <time>2017-12-02T17:01:34Z</time>
      </trkpt>
      <trkpt lat="47.35621" lon="-1.12857">
        <ele>3</ele>
        <time>2017-12-02T17:01:35Z</time>
      </trkpt>
      <trkpt lat="47.35607" lon="-1.12906">
        <ele>3</ele>
        <time>2017-12-02T17:01:43Z</time>
      </trkpt>
      <trkpt lat="47.35599" lon="-1.12947">
        <ele>3</ele>
        <time>2017-12-02T17:01:50Z</time>
      </trkpt>
      <trkpt lat="47.35592" lon="-1.12963">
        <ele>3</ele>
        <time>2017-12-02T17:01:53Z</time>
      </trkpt>
      <trkpt lat="47.35587" lon="-1.12975">
        <ele>3</ele>
        <time>2017-12-02T17:01:55Z</time>
      </trkpt>
      <trkpt lat="47.3558" lon="-1.13014">
        <ele>3</ele>
        <time>2017-12-02T17:02:01Z</time>
      </trkpt>
      <trkpt lat="47.35571" lon="-1.1306">
        <ele>3</ele>
        <time>2017-12-02T17:02:08Z</time>
      </trkpt>
      <trkpt lat="47.35558" lon="-1.131">
        <ele>4</ele>
        <time>2017-12-02T17:02:15Z</time>
      </trkpt>
      <trkpt lat="47.3555" lon="-1.1314">
        <ele>3</ele>
        <time>2017-12-02T17:02:23Z</time>
      </trkpt>
      <trkpt lat="47.35539" lon="-1.13175">
        <ele>3</ele>
        <time>2017-12-02T17:02:31Z</time>
      </trkpt>
      <trkpt lat="47.35532" lon="-1.13206">
        <ele>3</ele>
        <time>2017-12-02T17:02:38Z</time>
      </trkpt>
      <trkpt lat="47.35524" lon="-1.13246">
        <ele>3</ele>
        <time>2017-12-02T17:02:46Z</time>
      </trkpt>
      <trkpt lat="47.35517" lon="-1.13282">
        <ele>3</ele>
        <time>2017-12-02T17:02:53Z</time>
      </trkpt>
      <trkpt lat="47.35509" lon="-1.13312">
        <ele>3</ele>
        <time>2017-12-02T17:02:59Z</time>
      </trkpt>
      <trkpt lat="47.35497" lon="-1.13349">
        <ele>3</ele>
        <time>2017-12-02T17:03:07Z</time>
      </trkpt>
      <trkpt lat="47.35485" lon="-1.13375">
        <ele>3</ele>
        <time>2017-12-02T17:03:13Z</time>
      </trkpt>
      <trkpt lat="47.35466" lon="-1.13416">
        <ele>3</ele>
        <time>2017-12-02T17:03:22Z</time>
      </trkpt>
      <trkpt lat="47.35452" lon="-1.13454">
        <ele>3</ele>
        <time>2017-12-02T17:03:30Z</time>
      </trkpt>
      <trkpt lat="47.35438" lon="-1.13488">
        <ele>3</ele>
        <time>2017-12-02T17:03:38Z</time>
      </trkpt>
      <trkpt lat="47.35428" lon="-1.13505">
        <ele>3</ele>
        <time>2017-12-02T17:03:43Z</time>
      </trkpt>
      <trkpt lat="47.35413" lon="-1.13523">
        <ele>3</ele>
        <time>2017-12-02T17:03:50Z</time>
      </trkpt>
      <trkpt lat="47.35398" lon="-1.13545">
        <ele>3</ele>
        <time>2017-12-02T17:03:56Z</time>
      </trkpt>
      <trkpt lat="47.35382" lon="-1.1357">
        <ele>3</ele>
        <time>2017-12-02T17:04:02Z</time>
      </trkpt>
      <trkpt lat="47.35368" lon="-1.13606">
        <ele>3</ele>
        <time>2017-12-02T17:04:09Z</time>
      </trkpt>
      <trkpt lat="47.35365" lon="-1.13617">
        <ele>3</ele>
        <time>2017-12-02T17:04:11Z</time>
      </trkpt>
      <trkpt lat="47.35359" lon="-1.1364">
        <ele>3</ele>
        <time>2017-12-02T17:04:15Z</time>
      </trkpt>
      <trkpt lat="47.35352" lon="-1.13683">
        <ele>2</ele>
        <time>2017-12-02T17:04:22Z</time>
      </trkpt>
      <trkpt lat="47.35347" lon="-1.1372">
        <ele>2</ele>
        <time>2017-12-02T17:04:28Z</time>
      </trkpt>
      <trkpt lat="47.3534" lon="-1.13777">
        <ele>2</ele>
        <time>2017-12-02T17:04:37Z</time>
      </trkpt>
      <trkpt lat="47.35338" lon="-1.13822">
        <ele>2</ele>
        <time>2017-12-02T17:04:44Z</time>
      </trkpt>
      <trkpt lat="47.35333" lon="-1.13862">
        <ele>2</ele>
        <time>2017-12-02T17:04:50Z</time>
      </trkpt>
      <trkpt lat="47.3532" lon="-1.13918">
        <ele>2</ele>
        <time>2017-12-02T17:04:59Z</time>
      </trkpt>
      <trkpt lat="47.3531" lon="-1.13958">
        <ele>2</ele>
        <time>2017-12-02T17:05:06Z</time>
      </trkpt>
      <trkpt lat="47.35296" lon="-1.14">
        <ele>3</ele>
        <time>2017-12-02T17:05:12Z</time>
      </trkpt>
      <trkpt lat="47.3528" lon="-1.14052">
        <ele>3</ele>
        <time>2017-12-02T17:05:18Z</time>
      </trkpt>
      <trkpt lat="47.35262" lon="-1.14123">
        <ele>4</ele>
        <time>2017-12-02T17:05:25Z</time>
      </trkpt>
      <trkpt lat="47.35255" lon="-1.14154">
        <ele>4</ele>
        <time>2017-12-02T17:05:28Z</time>
      </trkpt>
      <trkpt lat="47.35253" lon="-1.14175">
        <ele>4</ele>
        <time>2017-12-02T17:05:30Z</time>
      </trkpt>
      <trkpt lat="47.35251" lon="-1.14202">
        <ele>4</ele>
        <time>2017-12-02T17:05:33Z</time>
      </trkpt>
      <trkpt lat="47.35251" lon="-1.1421">
        <ele>4</ele>
        <time>2017-12-02T17:05:34Z</time>
      </trkpt>
      <trkpt lat="47.35247" lon="-1.14287">
        <ele>3</ele>
        <time>2017-12-02T17:05:43Z</time>
      </trkpt>
      <trkpt lat="47.35243" lon="-1.14338">
        <ele>2</ele>
        <time>2017-12-02T17:05:50Z</time>
      </trkpt>
      <trkpt lat="47.35244" lon="-1.14346">
        <ele>2</ele>
        <time>2017-12-02T17:05:51Z</time>
      </trkpt>
      <trkpt lat="47.35249" lon="-1.14366">
        <ele>2</ele>
        <time>2017-12-02T17:05:54Z</time>
      </trkpt>
      <trkpt lat="47.35251" lon="-1.14372">
        <ele>2</ele>
        <time>2017-12-02T17:05:55Z</time>
      </trkpt>
      <trkpt lat="47.35262" lon="-1.14409">
        <ele>3</ele>
        <time>2017-12-02T17:06:00Z</time>
      </trkpt>
      <trkpt lat="47.35267" lon="-1.14441">
        <ele>3</ele>
        <time>2017-12-02T17:06:04Z</time>
      </trkpt>
      <trkpt lat="47.35267" lon="-1.14466">
        <ele>3</ele>
        <time>2017-12-02T17:06:07Z</time>
      </trkpt>
      <trkpt lat="47.35263" lon="-1.14514">
        <ele>3</ele>
        <time>2017-12-02T17:06:13Z</time>
      </trkpt>
      <trkpt lat="47.35255" lon="-1.14559">
        <ele>3</ele>
        <time>2017-12-02T17:06:19Z</time>
      </trkpt>
      <trkpt lat="47.3525" lon="-1.14581">
        <ele>3</ele>
        <time>2017-12-02T17:06:22Z</time>
      </trkpt>
      <trkpt lat="47.35244" lon="-1.14594">
        <ele>3</ele>
        <time>2017-12-02T17:06:24Z</time>
      </trkpt>
      <trkpt lat="47.35216" lon="-1.1464">
        <ele>3</ele>
        <time>2017-12-02T17:06:32Z</time>
      </trkpt>
      <trkpt lat="47.35203" lon="-1.14683">
        <ele>3</ele>
        <time>2017-12-02T17:06:38Z</time>
      </trkpt>
      <trkpt lat="47.35197" lon="-1.1472">
        <ele>3</ele>
        <time>2017-12-02T17:06:44Z</time>
      </trkpt>
      <trkpt lat="47.35192" lon="-1.14738">
        <ele>3</ele>
        <time>2017-12-02T17:06:49Z</time>
      </trkpt>
      <trkpt lat="47.35189" lon="-1.14738">
        <ele>2</ele>
        <time>2017-12-02T17:08:41Z</time>
      </trkpt>
      <trkpt lat="47.35176" lon="-1.14731">
        <ele>2</ele>
        <time>2017-12-02T17:08:46Z</time>
      </trkpt>
      <trkpt lat="47.35147" lon="-1.14721">
        <ele>3</ele>
        <time>2017-12-02T17:08:54Z</time>
      </trkpt>
      <trkpt lat="47.35117" lon="-1.14709">
        <ele>3</ele>
        <time>2017-12-02T17:09:02Z</time>
      </trkpt>
      <trkpt lat="47.35093" lon="-1.14702">
        <ele>3</ele>
        <time>2017-12-02T17:09:08Z</time>
      </trkpt>
      <trkpt lat="47.35069" lon="-1.14692">
        <ele>3</ele>
        <time>2017-12-02T17:09:14Z</time>
      </trkpt>
      <trkpt lat="47.35065" lon="-1.14693">
        <ele>3</ele>
        <time>2017-12-02T17:09:15Z</time>
      </trkpt>
      <trkpt lat="47.35057" lon="-1.14707">
        <ele>3</ele>
        <time>2017-12-02T17:09:18Z</time>
      </trkpt>
      <trkpt lat="47.35056" lon="-1.14721">
        <ele>4</ele>
        <time>2017-12-02T17:09:20Z</time>
      </trkpt>
      <trkpt lat="47.35052" lon="-1.14756">
        <ele>4</ele>
        <time>2017-12-02T17:09:25Z</time>
      </trkpt>
      <trkpt lat="47.35045" lon="-1.14823">
        <ele>4</ele>
        <time>2017-12-02T17:09:35Z</time>
      </trkpt>
      <trkpt lat="47.3504" lon="-1.14849">
        <ele>5</ele>
        <time>2017-12-02T17:09:39Z</time>
      </trkpt>
      <trkpt lat="47.35036" lon="-1.1486">
        <ele>5</ele>
        <time>2017-12-02T17:09:41Z</time>
      </trkpt>
      <trkpt lat="47.35019" lon="-1.14871">
        <ele>5</ele>
        <time>2017-12-02T17:09:45Z</time>
      </trkpt>
      <trkpt lat="47.34979" lon="-1.14886">
        <ele>6</ele>
        <time>2017-12-02T17:09:54Z</time>
      </trkpt>
      <trkpt lat="47.34975" lon="-1.14887">
        <ele>6</ele>
        <time>2017-12-02T17:09:55Z</time>
      </trkpt>
      <trkpt lat="47.34956" lon="-1.14894">
        <ele>7</ele>
        <time>2017-12-02T17:10:00Z</time>
      </trkpt>
      <trkpt lat="47.34939" lon="-1.14901">
        <ele>8</ele>
        <time>2017-12-02T17:10:06Z</time>
      </trkpt>
      <trkpt lat="47.34937" lon="-1.14902">
        <ele>8</ele>
        <time>2017-12-02T17:10:07Z</time>
      </trkpt>
      <trkpt lat="47.34936" lon="-1.14904">
        <ele>8</ele>
        <time>2017-12-02T17:10:08Z</time>
      </trkpt>
      <trkpt lat="47.34939" lon="-1.14909">
        <ele>9</ele>
        <time>2017-12-02T17:10:33Z</time>
      </trkpt>
      <trkpt lat="47.34946" lon="-1.14917">
        <ele>9</ele>
        <time>2017-12-02T17:10:36Z</time>
      </trkpt>
      <trkpt lat="47.34962" lon="-1.14937">
        <ele>9</ele>
        <time>2017-12-02T17:10:40Z</time>
      </trkpt>
      <trkpt lat="47.34975" lon="-1.14956">
        <ele>9</ele>
        <time>2017-12-02T17:10:43Z</time>
      </trkpt>
      <trkpt lat="47.34986" lon="-1.14975">
        <ele>8</ele>
        <time>2017-12-02T17:10:46Z</time>
      </trkpt>
      <trkpt lat="47.34996" lon="-1.14988">
        <ele>7</ele>
        <time>2017-12-02T17:10:49Z</time>
      </trkpt>
      <trkpt lat="47.35" lon="-1.14991">
        <ele>7</ele>
        <time>2017-12-02T17:10:50Z</time>
      </trkpt>
      <trkpt lat="47.35004" lon="-1.14994">
        <ele>7</ele>
        <time>2017-12-02T17:10:51Z</time>
      </trkpt>
      <trkpt lat="47.35011" lon="-1.14996">
        <ele>6</ele>
        <time>2017-12-02T17:10:53Z</time>
      </trkpt>
      <trkpt lat="47.35014" lon="-1.14997">
        <ele>6</ele>
        <time>2017-12-02T17:10:54Z</time>
      </trkpt>
      <trkpt lat="47.35028" lon="-1.15003">
        <ele>5</ele>
        <time>2017-12-02T17:10:58Z</time>
      </trkpt>
      <trkpt lat="47.3503" lon="-1.15012">
        <ele>5</ele>
        <time>2017-12-02T17:11:00Z</time>
      </trkpt>
      <trkpt lat="47.3503" lon="-1.15017">
        <ele>5</ele>
        <time>2017-12-02T17:11:01Z</time>
      </trkpt>
      <trkpt lat="47.35029" lon="-1.15023">
        <ele>5</ele>
        <time>2017-12-02T17:11:02Z</time>
      </trkpt>
      <trkpt lat="47.35026" lon="-1.15064">
        <ele>5</ele>
        <time>2017-12-02T17:11:09Z</time>
      </trkpt>
      <trkpt lat="47.35016" lon="-1.15119">
        <ele>5</ele>
        <time>2017-12-02T17:11:17Z</time>
      </trkpt>
      <trkpt lat="47.35007" lon="-1.15165">
        <ele>5</ele>
        <time>2017-12-02T17:11:24Z</time>
      </trkpt>
      <trkpt lat="47.35002" lon="-1.1523">
        <ele>5</ele>
        <time>2017-12-02T17:11:34Z</time>
      </trkpt>
      <trkpt lat="47.35" lon="-1.15279">
        <ele>4</ele>
        <time>2017-12-02T17:11:42Z</time>
      </trkpt>
      <trkpt lat="47.35005" lon="-1.15302">
        <ele>4</ele>
        <time>2017-12-02T17:11:46Z</time>
      </trkpt>
      <trkpt lat="47.35011" lon="-1.1532">
        <ele>4</ele>
        <time>2017-12-02T17:11:49Z</time>
      </trkpt>
      <trkpt lat="47.35018" lon="-1.15354">
        <ele>4</ele>
        <time>2017-12-02T17:11:54Z</time>
      </trkpt>
      <trkpt lat="47.35018" lon="-1.15361">
        <ele>4</ele>
        <time>2017-12-02T17:11:55Z</time>
      </trkpt>
      <trkpt lat="47.3502" lon="-1.15411">
        <ele>3</ele>
        <time>2017-12-02T17:12:02Z</time>
      </trkpt>
      <trkpt lat="47.35021" lon="-1.15453">
        <ele>3</ele>
        <time>2017-12-02T17:12:08Z</time>
      </trkpt>
      <trkpt lat="47.35019" lon="-1.15466">
        <ele>3</ele>
        <time>2017-12-02T17:12:10Z</time>
      </trkpt>
      <trkpt lat="47.35013" lon="-1.15493">
        <ele>2</ele>
        <time>2017-12-02T17:12:14Z</time>
      </trkpt>
      <trkpt lat="47.35006" lon="-1.15512">
        <ele>2</ele>
        <time>2017-12-02T17:12:17Z</time>
      </trkpt>
      <trkpt lat="47.34992" lon="-1.15559">
        <ele>2</ele>
        <time>2017-12-02T17:12:25Z</time>
      </trkpt>
      <trkpt lat="47.34982" lon="-1.15599">
        <ele>2</ele>
        <time>2017-12-02T17:12:32Z</time>
      </trkpt>
      <trkpt lat="47.34978" lon="-1.15609">
        <ele>2</ele>
        <time>2017-12-02T17:12:34Z</time>
      </trkpt>
      <trkpt lat="47.34968" lon="-1.15635">
        <ele>2</ele>
        <time>2017-12-02T17:12:40Z</time>
      </trkpt>
      <trkpt lat="47.34961" lon="-1.15651">
        <ele>2</ele>
        <time>2017-12-02T17:12:46Z</time>
      </trkpt>
      <trkpt lat="47.34955" lon="-1.15666">
        <ele>2</ele>
        <time>2017-12-02T17:13:19Z</time>
      </trkpt>
      <trkpt lat="47.34947" lon="-1.15682">
        <ele>2</ele>
        <time>2017-12-02T17:13:24Z</time>
      </trkpt>
      <trkpt lat="47.34934" lon="-1.15706">
        <ele>3</ele>
        <time>2017-12-02T17:13:29Z</time>
      </trkpt>
      <trkpt lat="47.34911" lon="-1.15744">
        <ele>3</ele>
        <time>2017-12-02T17:13:36Z</time>
      </trkpt>
      <trkpt lat="47.34891" lon="-1.15772">
        <ele>3</ele>
        <time>2017-12-02T17:13:42Z</time>
      </trkpt>
      <trkpt lat="47.34866" lon="-1.15806">
        <ele>4</ele>
        <time>2017-12-02T17:13:49Z</time>
      </trkpt>
      <trkpt lat="47.34855" lon="-1.15836">
        <ele>4</ele>
        <time>2017-12-02T17:13:54Z</time>
      </trkpt>
      <trkpt lat="47.34852" lon="-1.15842">
        <ele>4</ele>
        <time>2017-12-02T17:13:55Z</time>
      </trkpt>
      <trkpt lat="47.34842" lon="-1.15872">
        <ele>4</ele>
        <time>2017-12-02T17:14:01Z</time>
      </trkpt>
      <trkpt lat="47.34835" lon="-1.15889">
        <ele>4</ele>
        <time>2017-12-02T17:14:06Z</time>
      </trkpt>
      <trkpt lat="47.3483" lon="-1.1589">
        <ele>4</ele>
        <time>2017-12-02T17:15:28Z</time>
      </trkpt>
      <trkpt lat="47.34828" lon="-1.1589">
        <ele>4</ele>
        <time>2017-12-02T17:15:29Z</time>
      </trkpt>
      <trkpt lat="47.34814" lon="-1.15879">
        <ele>4</ele>
        <time>2017-12-02T17:15:34Z</time>
      </trkpt>
      <trkpt lat="47.34797" lon="-1.15865">
        <ele>5</ele>
        <time>2017-12-02T17:15:40Z</time>
      </trkpt>
      <trkpt lat="47.34791" lon="-1.15862">
        <ele>5</ele>
        <time>2017-12-02T17:15:42Z</time>
      </trkpt>
      <trkpt lat="47.34765" lon="-1.15852">
        <ele>6</ele>
        <time>2017-12-02T17:15:49Z</time>
      </trkpt>
      <trkpt lat="47.34755" lon="-1.15848">
        <ele>6</ele>
        <time>2017-12-02T17:15:52Z</time>
      </trkpt>
      <trkpt lat="47.34738" lon="-1.15843">
        <ele>7</ele>
        <time>2017-12-02T17:15:57Z</time>
      </trkpt>
      <trkpt lat="47.34727" lon="-1.1584">
        <ele>8</ele>
        <time>2017-12-02T17:16:00Z</time>
      </trkpt>
      <trkpt lat="47.34719" lon="-1.15837">
        <ele>8</ele>
        <time>2017-12-02T17:16:02Z</time>
      </trkpt>
      <trkpt lat="47.34688" lon="-1.15826">
        <ele>9</ele>
        <time>2017-12-02T17:16:10Z</time>
      </trkpt>
      <trkpt lat="47.3468" lon="-1.15822">
        <ele>9</ele>
        <time>2017-12-02T17:16:12Z</time>
      </trkpt>
      <trkpt lat="47.34658" lon="-1.15815">
        <ele>10</ele>
        <time>2017-12-02T17:16:18Z</time>
      </trkpt>
      <trkpt lat="47.34639" lon="-1.15809">
        <ele>11</ele>
        <time>2017-12-02T17:16:23Z</time>
      </trkpt>
      <trkpt lat="47.34623" lon="-1.15802">
        <ele>12</ele>
        <time>2017-12-02T17:16:27Z</time>
      </trkpt>
      <trkpt lat="47.34604" lon="-1.15794">
        <ele>12</ele>
        <time>2017-12-02T17:16:32Z</time>
      </trkpt>
      <trkpt lat="47.34588" lon="-1.15786">
        <ele>13</ele>
        <time>2017-12-02T17:16:36Z</time>
      </trkpt>
      <trkpt lat="47.34571" lon="-1.15777">
        <ele>13</ele>
        <time>2017-12-02T17:16:40Z</time>
      </trkpt>
      <trkpt lat="47.34555" lon="-1.15767">
        <ele>14</ele>
        <time>2017-12-02T17:16:44Z</time>
      </trkpt>
      <trkpt lat="47.34523" lon="-1.15754">
        <ele>14</ele>
        <time>2017-12-02T17:16:52Z</time>
      </trkpt>
      <trkpt lat="47.34508" lon="-1.15767">
        <ele>14</ele>
        <time>2017-12-02T17:16:57Z</time>
      </trkpt>
      <trkpt lat="47.34507" lon="-1.1577">
        <ele>15</ele>
        <time>2017-12-02T17:16:58Z</time>
      </trkpt>
      <trkpt lat="47.34501" lon="-1.15783">
        <ele>15</ele>
        <time>2017-12-02T17:18:11Z</time>
      </trkpt>
      <trkpt lat="47.34498" lon="-1.15787">
        <ele>14</ele>
        <time>2017-12-02T17:18:15Z</time>
      </trkpt>
      <trkpt lat="47.34498" lon="-1.15791">
        <ele>14</ele>
        <time>2017-12-02T17:18:19Z</time>
      </trkpt>
      <trkpt lat="47.345" lon="-1.15798">
        <ele>14</ele>
        <time>2017-12-02T17:18:21Z</time>
      </trkpt>
      <trkpt lat="47.34508" lon="-1.1583">
        <ele>14</ele>
        <time>2017-12-02T17:18:26Z</time>
      </trkpt>
      <trkpt lat="47.3452" lon="-1.15883">
        <ele>14</ele>
        <time>2017-12-02T17:18:33Z</time>
      </trkpt>
      <trkpt lat="47.34526" lon="-1.15936">
        <ele>14</ele>
        <time>2017-12-02T17:18:41Z</time>
      </trkpt>
      <trkpt lat="47.34526" lon="-1.15977">
        <ele>14</ele>
        <time>2017-12-02T17:18:48Z</time>
      </trkpt>
      <trkpt lat="47.34522" lon="-1.16019">
        <ele>14</ele>
        <time>2017-12-02T17:18:56Z</time>
      </trkpt>
      <trkpt lat="47.34515" lon="-1.16059">
        <ele>14</ele>
        <time>2017-12-02T17:19:05Z</time>
      </trkpt>
      <trkpt lat="47.34511" lon="-1.16076">
        <ele>14</ele>
        <time>2017-12-02T17:19:09Z</time>
      </trkpt>
      <trkpt lat="47.34507" lon="-1.16098">
        <ele>13</ele>
        <time>2017-12-02T17:19:14Z</time>
      </trkpt>
      <trkpt lat="47.34497" lon="-1.16129">
        <ele>13</ele>
        <time>2017-12-02T17:19:21Z</time>
      </trkpt>
      <trkpt lat="47.34495" lon="-1.16133">
        <ele>12</ele>
        <time>2017-12-02T17:19:22Z</time>
      </trkpt>
      <trkpt lat="47.34485" lon="-1.16152">
        <ele>11</ele>
        <time>2017-12-02T17:19:28Z</time>
      </trkpt>
      <trkpt lat="47.34482" lon="-1.16158">
        <ele>11</ele>
        <time>2017-12-02T17:19:30Z</time>
      </trkpt>
      <trkpt lat="47.34475" lon="-1.1617">
        <ele>10</ele>
        <time>2017-12-02T17:19:34Z</time>
      </trkpt>
      <trkpt lat="47.34472" lon="-1.16178">
        <ele>10</ele>
        <time>2017-12-02T17:19:36Z</time>
      </trkpt>
      <trkpt lat="47.34465" lon="-1.16187">
        <ele>10</ele>
        <time>2017-12-02T17:19:40Z</time>
      </trkpt>
      <trkpt lat="47.34463" lon="-1.16186">
        <ele>9</ele>
        <time>2017-12-02T17:19:41Z</time>
      </trkpt>
      <trkpt lat="47.34456" lon="-1.16175">
        <ele>9</ele>
        <time>2017-12-02T17:19:44Z</time>
      </trkpt>
      <trkpt lat="47.34453" lon="-1.1617">
        <ele>9</ele>
        <time>2017-12-02T17:19:45Z</time>
      </trkpt>
      <trkpt lat="47.34447" lon="-1.16156">
        <ele>8</ele>
        <time>2017-12-02T17:19:48Z</time>
      </trkpt>
      <trkpt lat="47.34439" lon="-1.16144">
        <ele>7</ele>
        <time>2017-12-02T17:19:51Z</time>
      </trkpt>
      <trkpt lat="47.34434" lon="-1.16135">
        <ele>7</ele>
        <time>2017-12-02T17:19:53Z</time>
      </trkpt>
      <trkpt lat="47.34431" lon="-1.16125">
        <ele>7</ele>
        <time>2017-12-02T17:19:55Z</time>
      </trkpt>
      <trkpt lat="47.3443" lon="-1.16105">
        <ele>6</ele>
        <time>2017-12-02T17:20:00Z</time>
      </trkpt>
      <trkpt lat="47.34435" lon="-1.16099">
        <ele>6</ele>
        <time>2017-12-02T17:20:04Z</time>
      </trkpt>
    </trkseg>
  </trk>
</gpx>